<?xml version="1.0" encoding="UTF-8" standalone="no" ?>
<gpx xmlns="http://www.topografix.com/GPX/1/1" xmlns:xsi="http://www.w3.org/2001/XMLSchema-instance" xsi:schemaLocation="http://www.topografix.com/GPX/1/1 http://www.topografix.com/GPX/1/1/gpx.xsd" version="1.1" creator="VisuGPX - https://www.visugpx.com">
  <metadata>
    <name>Revel-La combe de Lancey-Revel</name>
    <desc><![CDATA[File with points/tracks from Locus Map/3.37.2]]></desc>
  </metadata>
  <trk>
    <name><![CDATA[2019-05-27 13:20:19]]></name>
    <desc><![CDATA[Lancey]]></desc>
    <trkseg>
      <trkpt lat="45.18386" lon="5.87377">
        <ele>697.41</ele>
        <time>2019-05-27T11:20:36.000Z</time>
      </trkpt>
      <trkpt lat="45.18392" lon="5.87367">
        <ele>691.65</ele>
        <time>2019-05-27T11:21:07.000Z</time>
      </trkpt>
      <trkpt lat="45.18392" lon="5.87326">
        <ele>685.79</ele>
        <time>2019-05-27T11:21:12.000Z</time>
      </trkpt>
      <trkpt lat="45.18386" lon="5.87284">
        <ele>681.1</ele>
        <time>2019-05-27T11:21:17.000Z</time>
      </trkpt>
      <trkpt lat="45.18401" lon="5.87246">
        <ele>678.8</ele>
        <time>2019-05-27T11:21:22.000Z</time>
      </trkpt>
      <trkpt lat="45.18423" lon="5.87214">
        <ele>675.08</ele>
        <time>2019-05-27T11:21:27.000Z</time>
      </trkpt>
      <trkpt lat="45.18441" lon="5.87188">
        <ele>673.4</ele>
        <time>2019-05-27T11:21:32.000Z</time>
      </trkpt>
      <trkpt lat="45.1843" lon="5.87174">
        <ele>670.36</ele>
        <time>2019-05-27T11:21:37.000Z</time>
      </trkpt>
      <trkpt lat="45.18405" lon="5.87144">
        <ele>668.31</ele>
        <time>2019-05-27T11:21:42.000Z</time>
      </trkpt>
      <trkpt lat="45.18446" lon="5.87107">
        <ele>668.05</ele>
        <time>2019-05-27T11:21:47.000Z</time>
      </trkpt>
      <trkpt lat="45.18483" lon="5.87093">
        <ele>665.09</ele>
        <time>2019-05-27T11:21:52.000Z</time>
      </trkpt>
      <trkpt lat="45.18519" lon="5.87059">
        <ele>663.17</ele>
        <time>2019-05-27T11:21:57.000Z</time>
      </trkpt>
      <trkpt lat="45.18568" lon="5.87058">
        <ele>656.71</ele>
        <time>2019-05-27T11:22:02.000Z</time>
      </trkpt>
      <trkpt lat="45.18591" lon="5.86998">
        <ele>656.51</ele>
        <time>2019-05-27T11:22:07.000Z</time>
      </trkpt>
      <trkpt lat="45.18589" lon="5.86919">
        <ele>653.04</ele>
        <time>2019-05-27T11:22:12.000Z</time>
      </trkpt>
      <trkpt lat="45.18582" lon="5.86868">
        <ele>647.41</ele>
        <time>2019-05-27T11:22:17.000Z</time>
      </trkpt>
      <trkpt lat="45.18604" lon="5.86871">
        <ele>645.73</ele>
        <time>2019-05-27T11:22:22.000Z</time>
      </trkpt>
      <trkpt lat="45.18625" lon="5.86916">
        <ele>641.5</ele>
        <time>2019-05-27T11:22:27.000Z</time>
      </trkpt>
      <trkpt lat="45.18668" lon="5.86896">
        <ele>639.79</ele>
        <time>2019-05-27T11:22:32.000Z</time>
      </trkpt>
      <trkpt lat="45.18686" lon="5.86813">
        <ele>637.26</ele>
        <time>2019-05-27T11:22:37.000Z</time>
      </trkpt>
      <trkpt lat="45.18722" lon="5.86738">
        <ele>632.25</ele>
        <time>2019-05-27T11:22:42.000Z</time>
      </trkpt>
      <trkpt lat="45.18772" lon="5.86671">
        <ele>622.81</ele>
        <time>2019-05-27T11:22:47.000Z</time>
      </trkpt>
      <trkpt lat="45.18796" lon="5.86587">
        <ele>614.08</ele>
        <time>2019-05-27T11:22:52.000Z</time>
      </trkpt>
      <trkpt lat="45.18781" lon="5.86507">
        <ele>606.8</ele>
        <time>2019-05-27T11:22:57.000Z</time>
      </trkpt>
      <trkpt lat="45.18794" lon="5.8646">
        <ele>598.91</ele>
        <time>2019-05-27T11:23:02.000Z</time>
      </trkpt>
      <trkpt lat="45.18838" lon="5.86448">
        <ele>589.46</ele>
        <time>2019-05-27T11:23:07.000Z</time>
      </trkpt>
      <trkpt lat="45.18874" lon="5.86399">
        <ele>589.13</ele>
        <time>2019-05-27T11:23:12.000Z</time>
      </trkpt>
      <trkpt lat="45.18906" lon="5.86323">
        <ele>591.28</ele>
        <time>2019-05-27T11:23:17.000Z</time>
      </trkpt>
      <trkpt lat="45.18926" lon="5.86229">
        <ele>586.88</ele>
        <time>2019-05-27T11:23:22.000Z</time>
      </trkpt>
      <trkpt lat="45.1894" lon="5.86135">
        <ele>587.09</ele>
        <time>2019-05-27T11:23:27.000Z</time>
      </trkpt>
      <trkpt lat="45.18955" lon="5.86036">
        <ele>586.59</ele>
        <time>2019-05-27T11:23:32.000Z</time>
      </trkpt>
      <trkpt lat="45.18964" lon="5.85943">
        <ele>578.14</ele>
        <time>2019-05-27T11:23:37.000Z</time>
      </trkpt>
      <trkpt lat="45.18957" lon="5.85847">
        <ele>566.59</ele>
        <time>2019-05-27T11:23:42.000Z</time>
      </trkpt>
      <trkpt lat="45.1895" lon="5.85741">
        <ele>556.98</ele>
        <time>2019-05-27T11:23:47.000Z</time>
      </trkpt>
      <trkpt lat="45.18938" lon="5.85656">
        <ele>549.62</ele>
        <time>2019-05-27T11:23:52.000Z</time>
      </trkpt>
      <trkpt lat="45.18966" lon="5.85597">
        <ele>550.23</ele>
        <time>2019-05-27T11:23:57.000Z</time>
      </trkpt>
      <trkpt lat="45.19007" lon="5.85534">
        <ele>539.96</ele>
        <time>2019-05-27T11:24:02.000Z</time>
      </trkpt>
      <trkpt lat="45.19067" lon="5.85502">
        <ele>534.33</ele>
        <time>2019-05-27T11:24:07.000Z</time>
      </trkpt>
      <trkpt lat="45.19124" lon="5.85451">
        <ele>530.19</ele>
        <time>2019-05-27T11:24:12.000Z</time>
      </trkpt>
      <trkpt lat="45.19181" lon="5.85386">
        <ele>522.28</ele>
        <time>2019-05-27T11:24:17.000Z</time>
      </trkpt>
      <trkpt lat="45.19248" lon="5.8535">
        <ele>521.36</ele>
        <time>2019-05-27T11:24:22.000Z</time>
      </trkpt>
      <trkpt lat="45.19324" lon="5.85321">
        <ele>515.84</ele>
        <time>2019-05-27T11:24:27.000Z</time>
      </trkpt>
      <trkpt lat="45.19377" lon="5.85363">
        <ele>507.44</ele>
        <time>2019-05-27T11:24:32.000Z</time>
      </trkpt>
      <trkpt lat="45.19398" lon="5.8534">
        <ele>500.68</ele>
        <time>2019-05-27T11:24:37.000Z</time>
      </trkpt>
      <trkpt lat="45.19391" lon="5.85254">
        <ele>499.88</ele>
        <time>2019-05-27T11:24:42.000Z</time>
      </trkpt>
      <trkpt lat="45.19411" lon="5.85185">
        <ele>497.09</ele>
        <time>2019-05-27T11:24:47.000Z</time>
      </trkpt>
      <trkpt lat="45.19464" lon="5.85182">
        <ele>491.85</ele>
        <time>2019-05-27T11:24:52.000Z</time>
      </trkpt>
      <trkpt lat="45.1948" lon="5.85086">
        <ele>479.35</ele>
        <time>2019-05-27T11:24:57.000Z</time>
      </trkpt>
      <trkpt lat="45.19522" lon="5.85019">
        <ele>472.91</ele>
        <time>2019-05-27T11:25:02.000Z</time>
      </trkpt>
      <trkpt lat="45.19592" lon="5.84982">
        <ele>460.49</ele>
        <time>2019-05-27T11:25:07.000Z</time>
      </trkpt>
      <trkpt lat="45.19649" lon="5.84916">
        <ele>461.33</ele>
        <time>2019-05-27T11:25:12.000Z</time>
      </trkpt>
      <trkpt lat="45.1971" lon="5.84864">
        <ele>452.14</ele>
        <time>2019-05-27T11:25:17.000Z</time>
      </trkpt>
      <trkpt lat="45.19777" lon="5.84825">
        <ele>448.93</ele>
        <time>2019-05-27T11:25:22.000Z</time>
      </trkpt>
      <trkpt lat="45.19844" lon="5.84791">
        <ele>444.17</ele>
        <time>2019-05-27T11:25:27.000Z</time>
      </trkpt>
      <trkpt lat="45.19886" lon="5.84757">
        <ele>440.73</ele>
        <time>2019-05-27T11:25:32.000Z</time>
      </trkpt>
      <trkpt lat="45.19856" lon="5.84669">
        <ele>436.52</ele>
        <time>2019-05-27T11:25:37.000Z</time>
      </trkpt>
      <trkpt lat="45.19908" lon="5.84602">
        <ele>424.77</ele>
        <time>2019-05-27T11:25:42.000Z</time>
      </trkpt>
      <trkpt lat="45.19946" lon="5.8452">
        <ele>420.14</ele>
        <time>2019-05-27T11:25:47.000Z</time>
      </trkpt>
      <trkpt lat="45.20005" lon="5.84474">
        <ele>415.62</ele>
        <time>2019-05-27T11:25:52.000Z</time>
      </trkpt>
      <trkpt lat="45.2008" lon="5.84462">
        <ele>411.06</ele>
        <time>2019-05-27T11:25:57.000Z</time>
      </trkpt>
      <trkpt lat="45.20137" lon="5.84526">
        <ele>404.57</ele>
        <time>2019-05-27T11:26:02.000Z</time>
      </trkpt>
      <trkpt lat="45.20166" lon="5.84627">
        <ele>399.51</ele>
        <time>2019-05-27T11:26:07.000Z</time>
      </trkpt>
      <trkpt lat="45.20225" lon="5.84706">
        <ele>393.86</ele>
        <time>2019-05-27T11:26:12.000Z</time>
      </trkpt>
      <trkpt lat="45.20275" lon="5.8481">
        <ele>379.31</ele>
        <time>2019-05-27T11:26:17.000Z</time>
      </trkpt>
      <trkpt lat="45.20313" lon="5.84914">
        <ele>374.02</ele>
        <time>2019-05-27T11:26:22.000Z</time>
      </trkpt>
      <trkpt lat="45.20359" lon="5.8501">
        <ele>372.6</ele>
        <time>2019-05-27T11:26:27.000Z</time>
      </trkpt>
      <trkpt lat="45.20402" lon="5.85097">
        <ele>368.38</ele>
        <time>2019-05-27T11:26:32.000Z</time>
      </trkpt>
      <trkpt lat="45.2042" lon="5.85109">
        <ele>361.12</ele>
        <time>2019-05-27T11:26:37.000Z</time>
      </trkpt>
      <trkpt lat="45.20397" lon="5.85044">
        <ele>358.82</ele>
        <time>2019-05-27T11:26:42.000Z</time>
      </trkpt>
      <trkpt lat="45.20368" lon="5.8496">
        <ele>350.89</ele>
        <time>2019-05-27T11:26:47.000Z</time>
      </trkpt>
      <trkpt lat="45.2034" lon="5.84878">
        <ele>343.22</ele>
        <time>2019-05-27T11:26:52.000Z</time>
      </trkpt>
      <trkpt lat="45.20319" lon="5.84797">
        <ele>338.52</ele>
        <time>2019-05-27T11:26:57.000Z</time>
      </trkpt>
      <trkpt lat="45.20302" lon="5.84695">
        <ele>336.17</ele>
        <time>2019-05-27T11:27:02.000Z</time>
      </trkpt>
      <trkpt lat="45.20275" lon="5.84602">
        <ele>331.4</ele>
        <time>2019-05-27T11:27:07.000Z</time>
      </trkpt>
      <trkpt lat="45.20244" lon="5.84498">
        <ele>324.05</ele>
        <time>2019-05-27T11:27:12.000Z</time>
      </trkpt>
      <trkpt lat="45.20227" lon="5.84384">
        <ele>318.99</ele>
        <time>2019-05-27T11:27:17.000Z</time>
      </trkpt>
      <trkpt lat="45.20181" lon="5.84276">
        <ele>310.21</ele>
        <time>2019-05-27T11:27:22.000Z</time>
      </trkpt>
      <trkpt lat="45.20157" lon="5.84206">
        <ele>297.04</ele>
        <time>2019-05-27T11:27:27.000Z</time>
      </trkpt>
      <trkpt lat="45.20098" lon="5.84229">
        <ele>285.98</ele>
        <time>2019-05-27T11:27:32.000Z</time>
      </trkpt>
      <trkpt lat="45.2003" lon="5.84246">
        <ele>278.04</ele>
        <time>2019-05-27T11:27:37.000Z</time>
      </trkpt>
      <trkpt lat="45.19993" lon="5.8423">
        <ele>273.02</ele>
        <time>2019-05-27T11:27:42.000Z</time>
      </trkpt>
      <trkpt lat="45.20022" lon="5.84189">
        <ele>267.99</ele>
        <time>2019-05-27T11:27:47.000Z</time>
      </trkpt>
      <trkpt lat="45.20073" lon="5.84151">
        <ele>261.7</ele>
        <time>2019-05-27T11:27:52.000Z</time>
      </trkpt>
      <trkpt lat="45.20097" lon="5.84098">
        <ele>254.37</ele>
        <time>2019-05-27T11:27:57.000Z</time>
      </trkpt>
      <trkpt lat="45.20119" lon="5.84054">
        <ele>254.11</ele>
        <time>2019-05-27T11:28:02.000Z</time>
      </trkpt>
      <trkpt lat="45.20132" lon="5.84043">
        <ele>252.83</ele>
        <time>2019-05-27T11:28:07.000Z</time>
      </trkpt>
      <trkpt lat="45.2014" lon="5.84031">
        <ele>252.52</ele>
        <time>2019-05-27T11:28:54.000Z</time>
      </trkpt>
      <trkpt lat="45.20147" lon="5.84009">
        <ele>251.69</ele>
        <time>2019-05-27T11:28:59.000Z</time>
      </trkpt>
      <trkpt lat="45.20153" lon="5.83994">
        <ele>251.15</ele>
        <time>2019-05-27T11:29:04.000Z</time>
      </trkpt>
      <trkpt lat="45.2016" lon="5.83975">
        <ele>251.79</ele>
        <time>2019-05-27T11:29:09.000Z</time>
      </trkpt>
      <trkpt lat="45.20159" lon="5.83934">
        <ele>250.73</ele>
        <time>2019-05-27T11:29:14.000Z</time>
      </trkpt>
      <trkpt lat="45.20155" lon="5.83893">
        <ele>250.2</ele>
        <time>2019-05-27T11:29:19.000Z</time>
      </trkpt>
      <trkpt lat="45.20155" lon="5.83851">
        <ele>248.19</ele>
        <time>2019-05-27T11:29:24.000Z</time>
      </trkpt>
      <trkpt lat="45.20182" lon="5.83836">
        <ele>246.08</ele>
        <time>2019-05-27T11:29:29.000Z</time>
      </trkpt>
      <trkpt lat="45.20217" lon="5.83821">
        <ele>244.49</ele>
        <time>2019-05-27T11:29:34.000Z</time>
      </trkpt>
      <trkpt lat="45.20256" lon="5.838">
        <ele>242.97</ele>
        <time>2019-05-27T11:29:39.000Z</time>
      </trkpt>
      <trkpt lat="45.20295" lon="5.83768">
        <ele>243.24</ele>
        <time>2019-05-27T11:29:44.000Z</time>
      </trkpt>
      <trkpt lat="45.20333" lon="5.83732">
        <ele>242.33</ele>
        <time>2019-05-27T11:29:49.000Z</time>
      </trkpt>
      <trkpt lat="45.20376" lon="5.83697">
        <ele>235.1</ele>
        <time>2019-05-27T11:29:54.000Z</time>
      </trkpt>
      <trkpt lat="45.2041" lon="5.83658">
        <ele>232.76</ele>
        <time>2019-05-27T11:29:59.000Z</time>
      </trkpt>
      <trkpt lat="45.20452" lon="5.83623">
        <ele>232.89</ele>
        <time>2019-05-27T11:30:04.000Z</time>
      </trkpt>
      <trkpt lat="45.20488" lon="5.83585">
        <ele>233.43</ele>
        <time>2019-05-27T11:30:09.000Z</time>
      </trkpt>
      <trkpt lat="45.20528" lon="5.83551">
        <ele>232.93</ele>
        <time>2019-05-27T11:30:14.000Z</time>
      </trkpt>
      <trkpt lat="45.2057" lon="5.8352">
        <ele>233.56</ele>
        <time>2019-05-27T11:30:19.000Z</time>
      </trkpt>
      <trkpt lat="45.20611" lon="5.83486">
        <ele>233.75</ele>
        <time>2019-05-27T11:30:24.000Z</time>
      </trkpt>
      <trkpt lat="45.20655" lon="5.83456">
        <ele>231.2</ele>
        <time>2019-05-27T11:30:29.000Z</time>
      </trkpt>
      <trkpt lat="45.20698" lon="5.83423">
        <ele>231.78</ele>
        <time>2019-05-27T11:30:34.000Z</time>
      </trkpt>
      <trkpt lat="45.20738" lon="5.83392">
        <ele>231.04</ele>
        <time>2019-05-27T11:30:39.000Z</time>
      </trkpt>
      <trkpt lat="45.20778" lon="5.83356">
        <ele>226.51</ele>
        <time>2019-05-27T11:30:44.000Z</time>
      </trkpt>
      <trkpt lat="45.20823" lon="5.83321">
        <ele>224.51</ele>
        <time>2019-05-27T11:30:49.000Z</time>
      </trkpt>
      <trkpt lat="45.20864" lon="5.83295">
        <ele>222.84</ele>
        <time>2019-05-27T11:30:54.000Z</time>
      </trkpt>
      <trkpt lat="45.20899" lon="5.83266">
        <ele>225.42</ele>
        <time>2019-05-27T11:30:59.000Z</time>
      </trkpt>
      <trkpt lat="45.20935" lon="5.8324">
        <ele>227.69</ele>
        <time>2019-05-27T11:31:04.000Z</time>
      </trkpt>
      <trkpt lat="45.20972" lon="5.83224">
        <ele>225.79</ele>
        <time>2019-05-27T11:31:09.000Z</time>
      </trkpt>
      <trkpt lat="45.21002" lon="5.83225">
        <ele>226.42</ele>
        <time>2019-05-27T11:31:14.000Z</time>
      </trkpt>
      <trkpt lat="45.21018" lon="5.83244">
        <ele>227.57</ele>
        <time>2019-05-27T11:31:19.000Z</time>
      </trkpt>
      <trkpt lat="45.21035" lon="5.83256">
        <ele>224.96</ele>
        <time>2019-05-27T11:31:24.000Z</time>
      </trkpt>
      <trkpt lat="45.21057" lon="5.83247">
        <ele>226.77</ele>
        <time>2019-05-27T11:31:29.000Z</time>
      </trkpt>
      <trkpt lat="45.21073" lon="5.83219">
        <ele>227.43</ele>
        <time>2019-05-27T11:31:34.000Z</time>
      </trkpt>
      <trkpt lat="45.21085" lon="5.83188">
        <ele>227.5</ele>
        <time>2019-05-27T11:31:39.000Z</time>
      </trkpt>
      <trkpt lat="45.211" lon="5.83158">
        <ele>226.67</ele>
        <time>2019-05-27T11:31:44.000Z</time>
      </trkpt>
      <trkpt lat="45.21115" lon="5.8313">
        <ele>230.96</ele>
        <time>2019-05-27T11:31:49.000Z</time>
      </trkpt>
      <trkpt lat="45.2113" lon="5.83107">
        <ele>231.57</ele>
        <time>2019-05-27T11:31:54.000Z</time>
      </trkpt>
      <trkpt lat="45.21146" lon="5.83081">
        <ele>230.13</ele>
        <time>2019-05-27T11:31:59.000Z</time>
      </trkpt>
      <trkpt lat="45.2116" lon="5.83053">
        <ele>230.45</ele>
        <time>2019-05-27T11:32:04.000Z</time>
      </trkpt>
      <trkpt lat="45.21172" lon="5.83021">
        <ele>230.68</ele>
        <time>2019-05-27T11:32:09.000Z</time>
      </trkpt>
      <trkpt lat="45.21189" lon="5.8299">
        <ele>228.94</ele>
        <time>2019-05-27T11:32:14.000Z</time>
      </trkpt>
      <trkpt lat="45.21202" lon="5.82961">
        <ele>229.92</ele>
        <time>2019-05-27T11:32:19.000Z</time>
      </trkpt>
      <trkpt lat="45.21217" lon="5.82933">
        <ele>225.74</ele>
        <time>2019-05-27T11:32:24.000Z</time>
      </trkpt>
      <trkpt lat="45.21233" lon="5.829">
        <ele>224.56</ele>
        <time>2019-05-27T11:32:29.000Z</time>
      </trkpt>
      <trkpt lat="45.21249" lon="5.82868">
        <ele>227.21</ele>
        <time>2019-05-27T11:32:34.000Z</time>
      </trkpt>
      <trkpt lat="45.21265" lon="5.82836">
        <ele>224.33</ele>
        <time>2019-05-27T11:32:39.000Z</time>
      </trkpt>
      <trkpt lat="45.21282" lon="5.82801">
        <ele>221.63</ele>
        <time>2019-05-27T11:32:44.000Z</time>
      </trkpt>
      <trkpt lat="45.21282" lon="5.82814">
        <ele>219.99</ele>
        <time>2019-05-27T11:32:49.000Z</time>
      </trkpt>
      <trkpt lat="45.21268" lon="5.82841">
        <ele>219.95</ele>
        <time>2019-05-27T11:32:54.000Z</time>
      </trkpt>
      <trkpt lat="45.21255" lon="5.82875">
        <ele>220.64</ele>
        <time>2019-05-27T11:32:59.000Z</time>
      </trkpt>
      <trkpt lat="45.2124" lon="5.82905">
        <ele>220.16</ele>
        <time>2019-05-27T11:33:04.000Z</time>
      </trkpt>
      <trkpt lat="45.21226" lon="5.82934">
        <ele>219.59</ele>
        <time>2019-05-27T11:33:09.000Z</time>
      </trkpt>
      <trkpt lat="45.2124" lon="5.82959">
        <ele>224.69</ele>
        <time>2019-05-27T11:33:14.000Z</time>
      </trkpt>
      <trkpt lat="45.21248" lon="5.8297">
        <ele>223.42</ele>
        <time>2019-05-27T11:33:20.000Z</time>
      </trkpt>
      <trkpt lat="45.21251" lon="5.82982">
        <ele>223.58</ele>
        <time>2019-05-27T11:34:37.000Z</time>
      </trkpt>
      <trkpt lat="45.21263" lon="5.82995">
        <ele>223.23</ele>
        <time>2019-05-27T11:34:42.000Z</time>
      </trkpt>
      <trkpt lat="45.21281" lon="5.83014">
        <ele>220.18</ele>
        <time>2019-05-27T11:34:47.000Z</time>
      </trkpt>
      <trkpt lat="45.21301" lon="5.83036">
        <ele>218.8</ele>
        <time>2019-05-27T11:34:52.000Z</time>
      </trkpt>
      <trkpt lat="45.21324" lon="5.83059">
        <ele>216.9</ele>
        <time>2019-05-27T11:34:57.000Z</time>
      </trkpt>
      <trkpt lat="45.2134" lon="5.8308">
        <ele>220.96</ele>
        <time>2019-05-27T11:35:02.000Z</time>
      </trkpt>
      <trkpt lat="45.21361" lon="5.83101">
        <ele>223.82</ele>
        <time>2019-05-27T11:35:07.000Z</time>
      </trkpt>
      <trkpt lat="45.21381" lon="5.83121">
        <ele>223.43</ele>
        <time>2019-05-27T11:35:12.000Z</time>
      </trkpt>
      <trkpt lat="45.21402" lon="5.8314">
        <ele>223.3</ele>
        <time>2019-05-27T11:35:17.000Z</time>
      </trkpt>
      <trkpt lat="45.21425" lon="5.83163">
        <ele>221.51</ele>
        <time>2019-05-27T11:35:22.000Z</time>
      </trkpt>
      <trkpt lat="45.21444" lon="5.83186">
        <ele>219.45</ele>
        <time>2019-05-27T11:35:27.000Z</time>
      </trkpt>
      <trkpt lat="45.21465" lon="5.83213">
        <ele>218.94</ele>
        <time>2019-05-27T11:35:32.000Z</time>
      </trkpt>
      <trkpt lat="45.21485" lon="5.8324">
        <ele>220.72</ele>
        <time>2019-05-27T11:35:37.000Z</time>
      </trkpt>
      <trkpt lat="45.21506" lon="5.83269">
        <ele>221.45</ele>
        <time>2019-05-27T11:35:42.000Z</time>
      </trkpt>
      <trkpt lat="45.21529" lon="5.83297">
        <ele>221.13</ele>
        <time>2019-05-27T11:35:47.000Z</time>
      </trkpt>
      <trkpt lat="45.2155" lon="5.83327">
        <ele>222.85</ele>
        <time>2019-05-27T11:35:52.000Z</time>
      </trkpt>
      <trkpt lat="45.21574" lon="5.83356">
        <ele>225.69</ele>
        <time>2019-05-27T11:35:57.000Z</time>
      </trkpt>
      <trkpt lat="45.21592" lon="5.83386">
        <ele>223.59</ele>
        <time>2019-05-27T11:36:02.000Z</time>
      </trkpt>
      <trkpt lat="45.21612" lon="5.83413">
        <ele>225.2</ele>
        <time>2019-05-27T11:36:07.000Z</time>
      </trkpt>
      <trkpt lat="45.21629" lon="5.83449">
        <ele>225.75</ele>
        <time>2019-05-27T11:36:12.000Z</time>
      </trkpt>
      <trkpt lat="45.21646" lon="5.83485">
        <ele>228.01</ele>
        <time>2019-05-27T11:36:17.000Z</time>
      </trkpt>
      <trkpt lat="45.21668" lon="5.83517">
        <ele>225.64</ele>
        <time>2019-05-27T11:36:22.000Z</time>
      </trkpt>
      <trkpt lat="45.21685" lon="5.83554">
        <ele>218.72</ele>
        <time>2019-05-27T11:36:27.000Z</time>
      </trkpt>
      <trkpt lat="45.21703" lon="5.83591">
        <ele>216.86</ele>
        <time>2019-05-27T11:36:32.000Z</time>
      </trkpt>
      <trkpt lat="45.21727" lon="5.83629">
        <ele>214.34</ele>
        <time>2019-05-27T11:36:37.000Z</time>
      </trkpt>
      <trkpt lat="45.21741" lon="5.83662">
        <ele>214.76</ele>
        <time>2019-05-27T11:36:42.000Z</time>
      </trkpt>
      <trkpt lat="45.21759" lon="5.83699">
        <ele>217.44</ele>
        <time>2019-05-27T11:36:47.000Z</time>
      </trkpt>
      <trkpt lat="45.21774" lon="5.83732">
        <ele>216.24</ele>
        <time>2019-05-27T11:36:52.000Z</time>
      </trkpt>
      <trkpt lat="45.21796" lon="5.83767">
        <ele>216.23</ele>
        <time>2019-05-27T11:36:57.000Z</time>
      </trkpt>
      <trkpt lat="45.21818" lon="5.83797">
        <ele>217.27</ele>
        <time>2019-05-27T11:37:02.000Z</time>
      </trkpt>
      <trkpt lat="45.21843" lon="5.83827">
        <ele>217</ele>
        <time>2019-05-27T11:37:07.000Z</time>
      </trkpt>
      <trkpt lat="45.2187" lon="5.83858">
        <ele>215.35</ele>
        <time>2019-05-27T11:37:12.000Z</time>
      </trkpt>
      <trkpt lat="45.21889" lon="5.83892">
        <ele>214.63</ele>
        <time>2019-05-27T11:37:17.000Z</time>
      </trkpt>
      <trkpt lat="45.21909" lon="5.83931">
        <ele>217.59</ele>
        <time>2019-05-27T11:37:22.000Z</time>
      </trkpt>
      <trkpt lat="45.21933" lon="5.83972">
        <ele>215.09</ele>
        <time>2019-05-27T11:37:27.000Z</time>
      </trkpt>
      <trkpt lat="45.21956" lon="5.84005">
        <ele>212.26</ele>
        <time>2019-05-27T11:37:32.000Z</time>
      </trkpt>
      <trkpt lat="45.21979" lon="5.84038">
        <ele>212.47</ele>
        <time>2019-05-27T11:37:37.000Z</time>
      </trkpt>
      <trkpt lat="45.22001" lon="5.84072">
        <ele>213.25</ele>
        <time>2019-05-27T11:37:42.000Z</time>
      </trkpt>
      <trkpt lat="45.22025" lon="5.84105">
        <ele>212.4</ele>
        <time>2019-05-27T11:37:47.000Z</time>
      </trkpt>
      <trkpt lat="45.22051" lon="5.84132">
        <ele>214.16</ele>
        <time>2019-05-27T11:37:52.000Z</time>
      </trkpt>
      <trkpt lat="45.22075" lon="5.84151">
        <ele>214.16</ele>
        <time>2019-05-27T11:37:57.000Z</time>
      </trkpt>
      <trkpt lat="45.22107" lon="5.84174">
        <ele>213.26</ele>
        <time>2019-05-27T11:38:02.000Z</time>
      </trkpt>
      <trkpt lat="45.22132" lon="5.84202">
        <ele>213.55</ele>
        <time>2019-05-27T11:38:07.000Z</time>
      </trkpt>
      <trkpt lat="45.22157" lon="5.84234">
        <ele>214.6</ele>
        <time>2019-05-27T11:38:12.000Z</time>
      </trkpt>
      <trkpt lat="45.22179" lon="5.84271">
        <ele>217.15</ele>
        <time>2019-05-27T11:38:17.000Z</time>
      </trkpt>
      <trkpt lat="45.22204" lon="5.84304">
        <ele>215.01</ele>
        <time>2019-05-27T11:38:22.000Z</time>
      </trkpt>
      <trkpt lat="45.22224" lon="5.84335">
        <ele>216.53</ele>
        <time>2019-05-27T11:38:27.000Z</time>
      </trkpt>
      <trkpt lat="45.22247" lon="5.84364">
        <ele>220.29</ele>
        <time>2019-05-27T11:38:32.000Z</time>
      </trkpt>
      <trkpt lat="45.22278" lon="5.84385">
        <ele>218.84</ele>
        <time>2019-05-27T11:38:37.000Z</time>
      </trkpt>
      <trkpt lat="45.22302" lon="5.84411">
        <ele>219.8</ele>
        <time>2019-05-27T11:38:42.000Z</time>
      </trkpt>
      <trkpt lat="45.22322" lon="5.84439">
        <ele>222.8</ele>
        <time>2019-05-27T11:38:47.000Z</time>
      </trkpt>
      <trkpt lat="45.22347" lon="5.84468">
        <ele>221</ele>
        <time>2019-05-27T11:38:52.000Z</time>
      </trkpt>
      <trkpt lat="45.22368" lon="5.84498">
        <ele>221.27</ele>
        <time>2019-05-27T11:38:57.000Z</time>
      </trkpt>
      <trkpt lat="45.22391" lon="5.84529">
        <ele>221.5</ele>
        <time>2019-05-27T11:39:02.000Z</time>
      </trkpt>
      <trkpt lat="45.22416" lon="5.84556">
        <ele>218.15</ele>
        <time>2019-05-27T11:39:07.000Z</time>
      </trkpt>
      <trkpt lat="45.22438" lon="5.84587">
        <ele>217.05</ele>
        <time>2019-05-27T11:39:12.000Z</time>
      </trkpt>
      <trkpt lat="45.2246" lon="5.84614">
        <ele>217.39</ele>
        <time>2019-05-27T11:39:17.000Z</time>
      </trkpt>
      <trkpt lat="45.22482" lon="5.84641">
        <ele>217.57</ele>
        <time>2019-05-27T11:39:22.000Z</time>
      </trkpt>
      <trkpt lat="45.22505" lon="5.8467">
        <ele>218.72</ele>
        <time>2019-05-27T11:39:27.000Z</time>
      </trkpt>
      <trkpt lat="45.22531" lon="5.84699">
        <ele>217</ele>
        <time>2019-05-27T11:39:32.000Z</time>
      </trkpt>
      <trkpt lat="45.22558" lon="5.84731">
        <ele>217.32</ele>
        <time>2019-05-27T11:39:37.000Z</time>
      </trkpt>
      <trkpt lat="45.2258" lon="5.84766">
        <ele>217.45</ele>
        <time>2019-05-27T11:39:42.000Z</time>
      </trkpt>
      <trkpt lat="45.22604" lon="5.84795">
        <ele>218.99</ele>
        <time>2019-05-27T11:39:47.000Z</time>
      </trkpt>
      <trkpt lat="45.22627" lon="5.84823">
        <ele>218.42</ele>
        <time>2019-05-27T11:39:52.000Z</time>
      </trkpt>
      <trkpt lat="45.22655" lon="5.84854">
        <ele>218.56</ele>
        <time>2019-05-27T11:39:57.000Z</time>
      </trkpt>
      <trkpt lat="45.22679" lon="5.84888">
        <ele>224.02</ele>
        <time>2019-05-27T11:40:02.000Z</time>
      </trkpt>
      <trkpt lat="45.22704" lon="5.84918">
        <ele>222.3</ele>
        <time>2019-05-27T11:40:07.000Z</time>
      </trkpt>
      <trkpt lat="45.22731" lon="5.84945">
        <ele>221.51</ele>
        <time>2019-05-27T11:40:12.000Z</time>
      </trkpt>
      <trkpt lat="45.22756" lon="5.84974">
        <ele>219.67</ele>
        <time>2019-05-27T11:40:17.000Z</time>
      </trkpt>
      <trkpt lat="45.22779" lon="5.85003">
        <ele>218.9</ele>
        <time>2019-05-27T11:40:22.000Z</time>
      </trkpt>
      <trkpt lat="45.22803" lon="5.85031">
        <ele>216.95</ele>
        <time>2019-05-27T11:40:27.000Z</time>
      </trkpt>
      <trkpt lat="45.22827" lon="5.85061">
        <ele>218.02</ele>
        <time>2019-05-27T11:40:32.000Z</time>
      </trkpt>
      <trkpt lat="45.22855" lon="5.85095">
        <ele>217.75</ele>
        <time>2019-05-27T11:40:37.000Z</time>
      </trkpt>
      <trkpt lat="45.22877" lon="5.85127">
        <ele>219.46</ele>
        <time>2019-05-27T11:40:42.000Z</time>
      </trkpt>
      <trkpt lat="45.22903" lon="5.85153">
        <ele>217.69</ele>
        <time>2019-05-27T11:40:47.000Z</time>
      </trkpt>
      <trkpt lat="45.22929" lon="5.85187">
        <ele>218.58</ele>
        <time>2019-05-27T11:40:52.000Z</time>
      </trkpt>
      <trkpt lat="45.22953" lon="5.85219">
        <ele>220.55</ele>
        <time>2019-05-27T11:40:57.000Z</time>
      </trkpt>
      <trkpt lat="45.22978" lon="5.85252">
        <ele>221.19</ele>
        <time>2019-05-27T11:41:02.000Z</time>
      </trkpt>
      <trkpt lat="45.23002" lon="5.85285">
        <ele>223.33</ele>
        <time>2019-05-27T11:41:07.000Z</time>
      </trkpt>
      <trkpt lat="45.23029" lon="5.85318">
        <ele>225.53</ele>
        <time>2019-05-27T11:41:12.000Z</time>
      </trkpt>
      <trkpt lat="45.23047" lon="5.8534">
        <ele>226.94</ele>
        <time>2019-05-27T11:41:17.000Z</time>
      </trkpt>
      <trkpt lat="45.23059" lon="5.85348">
        <ele>226.37</ele>
        <time>2019-05-27T11:41:22.000Z</time>
      </trkpt>
      <trkpt lat="45.23078" lon="5.85341">
        <ele>225.55</ele>
        <time>2019-05-27T11:41:27.000Z</time>
      </trkpt>
      <trkpt lat="45.2308" lon="5.85368">
        <ele>224.51</ele>
        <time>2019-05-27T11:41:32.000Z</time>
      </trkpt>
      <trkpt lat="45.23059" lon="5.85392">
        <ele>223.33</ele>
        <time>2019-05-27T11:41:37.000Z</time>
      </trkpt>
      <trkpt lat="45.23039" lon="5.85418">
        <ele>222.37</ele>
        <time>2019-05-27T11:41:42.000Z</time>
      </trkpt>
      <trkpt lat="45.23025" lon="5.85451">
        <ele>222.29</ele>
        <time>2019-05-27T11:41:47.000Z</time>
      </trkpt>
      <trkpt lat="45.23006" lon="5.85484">
        <ele>222.82</ele>
        <time>2019-05-27T11:41:52.000Z</time>
      </trkpt>
      <trkpt lat="45.22991" lon="5.85518">
        <ele>224.39</ele>
        <time>2019-05-27T11:41:57.000Z</time>
      </trkpt>
      <trkpt lat="45.2299" lon="5.85563">
        <ele>223.41</ele>
        <time>2019-05-27T11:42:02.000Z</time>
      </trkpt>
      <trkpt lat="45.23009" lon="5.85603">
        <ele>222.52</ele>
        <time>2019-05-27T11:42:07.000Z</time>
      </trkpt>
      <trkpt lat="45.23039" lon="5.8563">
        <ele>222.17</ele>
        <time>2019-05-27T11:42:12.000Z</time>
      </trkpt>
      <trkpt lat="45.23071" lon="5.85645">
        <ele>222.3</ele>
        <time>2019-05-27T11:42:17.000Z</time>
      </trkpt>
      <trkpt lat="45.23101" lon="5.85655">
        <ele>221.58</ele>
        <time>2019-05-27T11:42:22.000Z</time>
      </trkpt>
      <trkpt lat="45.23131" lon="5.85661">
        <ele>221.67</ele>
        <time>2019-05-27T11:42:27.000Z</time>
      </trkpt>
      <trkpt lat="45.23161" lon="5.8567">
        <ele>222.27</ele>
        <time>2019-05-27T11:42:32.000Z</time>
      </trkpt>
      <trkpt lat="45.23192" lon="5.8568">
        <ele>224.54</ele>
        <time>2019-05-27T11:42:37.000Z</time>
      </trkpt>
      <trkpt lat="45.23224" lon="5.85685">
        <ele>226.92</ele>
        <time>2019-05-27T11:42:42.000Z</time>
      </trkpt>
      <trkpt lat="45.23256" lon="5.85691">
        <ele>228.13</ele>
        <time>2019-05-27T11:42:47.000Z</time>
      </trkpt>
      <trkpt lat="45.23286" lon="5.85698">
        <ele>228.41</ele>
        <time>2019-05-27T11:42:52.000Z</time>
      </trkpt>
      <trkpt lat="45.23317" lon="5.85709">
        <ele>228.04</ele>
        <time>2019-05-27T11:42:57.000Z</time>
      </trkpt>
      <trkpt lat="45.23346" lon="5.85732">
        <ele>228.74</ele>
        <time>2019-05-27T11:43:02.000Z</time>
      </trkpt>
      <trkpt lat="45.23373" lon="5.85756">
        <ele>226.82</ele>
        <time>2019-05-27T11:43:07.000Z</time>
      </trkpt>
      <trkpt lat="45.23401" lon="5.85778">
        <ele>226.15</ele>
        <time>2019-05-27T11:43:12.000Z</time>
      </trkpt>
      <trkpt lat="45.2343" lon="5.85793">
        <ele>229.43</ele>
        <time>2019-05-27T11:43:17.000Z</time>
      </trkpt>
      <trkpt lat="45.23464" lon="5.85797">
        <ele>230.34</ele>
        <time>2019-05-27T11:43:22.000Z</time>
      </trkpt>
      <trkpt lat="45.23497" lon="5.85794">
        <ele>228.65</ele>
        <time>2019-05-27T11:43:27.000Z</time>
      </trkpt>
      <trkpt lat="45.23528" lon="5.85802">
        <ele>225.96</ele>
        <time>2019-05-27T11:43:32.000Z</time>
      </trkpt>
      <trkpt lat="45.23562" lon="5.85816">
        <ele>226.93</ele>
        <time>2019-05-27T11:43:37.000Z</time>
      </trkpt>
      <trkpt lat="45.23596" lon="5.8583">
        <ele>227.54</ele>
        <time>2019-05-27T11:43:42.000Z</time>
      </trkpt>
      <trkpt lat="45.23624" lon="5.85852">
        <ele>230.05</ele>
        <time>2019-05-27T11:43:47.000Z</time>
      </trkpt>
      <trkpt lat="45.23646" lon="5.85881">
        <ele>228.42</ele>
        <time>2019-05-27T11:43:52.000Z</time>
      </trkpt>
      <trkpt lat="45.23659" lon="5.85924">
        <ele>227.6</ele>
        <time>2019-05-27T11:43:57.000Z</time>
      </trkpt>
      <trkpt lat="45.23664" lon="5.85971">
        <ele>226.45</ele>
        <time>2019-05-27T11:44:02.000Z</time>
      </trkpt>
      <trkpt lat="45.23657" lon="5.86013">
        <ele>225.42</ele>
        <time>2019-05-27T11:44:07.000Z</time>
      </trkpt>
      <trkpt lat="45.23648" lon="5.86056">
        <ele>225.28</ele>
        <time>2019-05-27T11:44:12.000Z</time>
      </trkpt>
      <trkpt lat="45.23635" lon="5.86101">
        <ele>224.56</ele>
        <time>2019-05-27T11:44:17.000Z</time>
      </trkpt>
      <trkpt lat="45.23626" lon="5.86146">
        <ele>231.73</ele>
        <time>2019-05-27T11:44:22.000Z</time>
      </trkpt>
      <trkpt lat="45.23615" lon="5.86187">
        <ele>231.45</ele>
        <time>2019-05-27T11:44:27.000Z</time>
      </trkpt>
      <trkpt lat="45.23607" lon="5.86228">
        <ele>229.46</ele>
        <time>2019-05-27T11:44:32.000Z</time>
      </trkpt>
      <trkpt lat="45.23596" lon="5.86273">
        <ele>228.47</ele>
        <time>2019-05-27T11:44:37.000Z</time>
      </trkpt>
      <trkpt lat="45.23583" lon="5.86316">
        <ele>227.69</ele>
        <time>2019-05-27T11:44:42.000Z</time>
      </trkpt>
      <trkpt lat="45.23572" lon="5.86359">
        <ele>228.3</ele>
        <time>2019-05-27T11:44:47.000Z</time>
      </trkpt>
      <trkpt lat="45.23561" lon="5.86402">
        <ele>228.73</ele>
        <time>2019-05-27T11:44:52.000Z</time>
      </trkpt>
      <trkpt lat="45.2355" lon="5.86448">
        <ele>226.46</ele>
        <time>2019-05-27T11:44:57.000Z</time>
      </trkpt>
      <trkpt lat="45.23542" lon="5.86494">
        <ele>227.78</ele>
        <time>2019-05-27T11:45:02.000Z</time>
      </trkpt>
      <trkpt lat="45.23527" lon="5.86539">
        <ele>226.72</ele>
        <time>2019-05-27T11:45:07.000Z</time>
      </trkpt>
      <trkpt lat="45.23516" lon="5.86581">
        <ele>227.46</ele>
        <time>2019-05-27T11:45:12.000Z</time>
      </trkpt>
      <trkpt lat="45.23507" lon="5.86626">
        <ele>230.52</ele>
        <time>2019-05-27T11:45:17.000Z</time>
      </trkpt>
      <trkpt lat="45.23495" lon="5.86671">
        <ele>227.73</ele>
        <time>2019-05-27T11:45:22.000Z</time>
      </trkpt>
      <trkpt lat="45.23484" lon="5.86713">
        <ele>228.7</ele>
        <time>2019-05-27T11:45:27.000Z</time>
      </trkpt>
      <trkpt lat="45.23471" lon="5.86756">
        <ele>226.78</ele>
        <time>2019-05-27T11:45:32.000Z</time>
      </trkpt>
      <trkpt lat="45.23463" lon="5.86801">
        <ele>224.17</ele>
        <time>2019-05-27T11:45:37.000Z</time>
      </trkpt>
      <trkpt lat="45.23455" lon="5.86839">
        <ele>229.48</ele>
        <time>2019-05-27T11:45:42.000Z</time>
      </trkpt>
      <trkpt lat="45.23443" lon="5.86883">
        <ele>231.5</ele>
        <time>2019-05-27T11:45:47.000Z</time>
      </trkpt>
      <trkpt lat="45.23434" lon="5.86925">
        <ele>227.93</ele>
        <time>2019-05-27T11:45:52.000Z</time>
      </trkpt>
      <trkpt lat="45.23425" lon="5.86968">
        <ele>230.39</ele>
        <time>2019-05-27T11:45:57.000Z</time>
      </trkpt>
      <trkpt lat="45.23414" lon="5.87015">
        <ele>231.82</ele>
        <time>2019-05-27T11:46:02.000Z</time>
      </trkpt>
      <trkpt lat="45.23411" lon="5.87059">
        <ele>230.38</ele>
        <time>2019-05-27T11:46:07.000Z</time>
      </trkpt>
      <trkpt lat="45.23411" lon="5.87101">
        <ele>229.68</ele>
        <time>2019-05-27T11:46:12.000Z</time>
      </trkpt>
      <trkpt lat="45.23404" lon="5.87148">
        <ele>227.6</ele>
        <time>2019-05-27T11:46:17.000Z</time>
      </trkpt>
      <trkpt lat="45.23397" lon="5.87196">
        <ele>228.32</ele>
        <time>2019-05-27T11:46:22.000Z</time>
      </trkpt>
      <trkpt lat="45.23394" lon="5.87243">
        <ele>225.66</ele>
        <time>2019-05-27T11:46:27.000Z</time>
      </trkpt>
      <trkpt lat="45.23389" lon="5.87288">
        <ele>229.71</ele>
        <time>2019-05-27T11:46:32.000Z</time>
      </trkpt>
      <trkpt lat="45.23389" lon="5.87335">
        <ele>232.73</ele>
        <time>2019-05-27T11:46:37.000Z</time>
      </trkpt>
      <trkpt lat="45.23386" lon="5.87383">
        <ele>233.32</ele>
        <time>2019-05-27T11:46:42.000Z</time>
      </trkpt>
      <trkpt lat="45.23384" lon="5.87427">
        <ele>230.43</ele>
        <time>2019-05-27T11:46:47.000Z</time>
      </trkpt>
      <trkpt lat="45.23384" lon="5.87475">
        <ele>231.4</ele>
        <time>2019-05-27T11:46:52.000Z</time>
      </trkpt>
      <trkpt lat="45.23383" lon="5.87527">
        <ele>231.04</ele>
        <time>2019-05-27T11:46:57.000Z</time>
      </trkpt>
      <trkpt lat="45.23384" lon="5.87574">
        <ele>228.97</ele>
        <time>2019-05-27T11:47:02.000Z</time>
      </trkpt>
      <trkpt lat="45.23391" lon="5.8762">
        <ele>229.31</ele>
        <time>2019-05-27T11:47:07.000Z</time>
      </trkpt>
      <trkpt lat="45.23398" lon="5.87667">
        <ele>229.35</ele>
        <time>2019-05-27T11:47:12.000Z</time>
      </trkpt>
      <trkpt lat="45.23403" lon="5.87714">
        <ele>228.06</ele>
        <time>2019-05-27T11:47:17.000Z</time>
      </trkpt>
      <trkpt lat="45.2341" lon="5.87758">
        <ele>227.33</ele>
        <time>2019-05-27T11:47:22.000Z</time>
      </trkpt>
      <trkpt lat="45.23418" lon="5.87803">
        <ele>228.82</ele>
        <time>2019-05-27T11:47:27.000Z</time>
      </trkpt>
      <trkpt lat="45.23429" lon="5.87842">
        <ele>227.42</ele>
        <time>2019-05-27T11:47:32.000Z</time>
      </trkpt>
      <trkpt lat="45.23442" lon="5.87887">
        <ele>225.7</ele>
        <time>2019-05-27T11:47:37.000Z</time>
      </trkpt>
      <trkpt lat="45.23459" lon="5.87924">
        <ele>230.12</ele>
        <time>2019-05-27T11:47:42.000Z</time>
      </trkpt>
      <trkpt lat="45.23466" lon="5.87966">
        <ele>229.11</ele>
        <time>2019-05-27T11:47:47.000Z</time>
      </trkpt>
      <trkpt lat="45.23479" lon="5.8801">
        <ele>227.66</ele>
        <time>2019-05-27T11:47:52.000Z</time>
      </trkpt>
      <trkpt lat="45.23491" lon="5.88049">
        <ele>225.36</ele>
        <time>2019-05-27T11:47:57.000Z</time>
      </trkpt>
      <trkpt lat="45.23505" lon="5.8809">
        <ele>226.44</ele>
        <time>2019-05-27T11:48:02.000Z</time>
      </trkpt>
      <trkpt lat="45.23504" lon="5.88126">
        <ele>232.43</ele>
        <time>2019-05-27T11:48:07.000Z</time>
      </trkpt>
      <trkpt lat="45.23484" lon="5.88159">
        <ele>232.01</ele>
        <time>2019-05-27T11:48:12.000Z</time>
      </trkpt>
      <trkpt lat="45.23463" lon="5.88181">
        <ele>232.39</ele>
        <time>2019-05-27T11:48:17.000Z</time>
      </trkpt>
      <trkpt lat="45.23444" lon="5.88198">
        <ele>234.43</ele>
        <time>2019-05-27T11:48:22.000Z</time>
      </trkpt>
      <trkpt lat="45.23428" lon="5.88218">
        <ele>234.24</ele>
        <time>2019-05-27T11:48:27.000Z</time>
      </trkpt>
      <trkpt lat="45.23412" lon="5.88236">
        <ele>235.16</ele>
        <time>2019-05-27T11:48:32.000Z</time>
      </trkpt>
      <trkpt lat="45.23401" lon="5.88241">
        <ele>234.87</ele>
        <time>2019-05-27T11:48:56.000Z</time>
      </trkpt>
      <trkpt lat="45.23391" lon="5.8827">
        <ele>240.96</ele>
        <time>2019-05-27T11:49:01.000Z</time>
      </trkpt>
      <trkpt lat="45.23376" lon="5.88294">
        <ele>241.76</ele>
        <time>2019-05-27T11:49:06.000Z</time>
      </trkpt>
      <trkpt lat="45.2336" lon="5.88311">
        <ele>242.02</ele>
        <time>2019-05-27T11:49:11.000Z</time>
      </trkpt>
      <trkpt lat="45.23347" lon="5.88336">
        <ele>242.92</ele>
        <time>2019-05-27T11:49:16.000Z</time>
      </trkpt>
      <trkpt lat="45.23333" lon="5.88347">
        <ele>240.13</ele>
        <time>2019-05-27T11:49:21.000Z</time>
      </trkpt>
      <trkpt lat="45.23316" lon="5.88362">
        <ele>240.49</ele>
        <time>2019-05-27T11:49:26.000Z</time>
      </trkpt>
      <trkpt lat="45.23301" lon="5.88383">
        <ele>242.93</ele>
        <time>2019-05-27T11:49:31.000Z</time>
      </trkpt>
      <trkpt lat="45.23286" lon="5.884">
        <ele>240.63</ele>
        <time>2019-05-27T11:49:36.000Z</time>
      </trkpt>
      <trkpt lat="45.23278" lon="5.88426">
        <ele>239.47</ele>
        <time>2019-05-27T11:49:41.000Z</time>
      </trkpt>
      <trkpt lat="45.23278" lon="5.88454">
        <ele>242.58</ele>
        <time>2019-05-27T11:49:46.000Z</time>
      </trkpt>
      <trkpt lat="45.23283" lon="5.88484">
        <ele>245.95</ele>
        <time>2019-05-27T11:49:51.000Z</time>
      </trkpt>
      <trkpt lat="45.23292" lon="5.88509">
        <ele>249.13</ele>
        <time>2019-05-27T11:49:56.000Z</time>
      </trkpt>
      <trkpt lat="45.2331" lon="5.88525">
        <ele>251.83</ele>
        <time>2019-05-27T11:50:01.000Z</time>
      </trkpt>
      <trkpt lat="45.23328" lon="5.88543">
        <ele>250.33</ele>
        <time>2019-05-27T11:50:06.000Z</time>
      </trkpt>
      <trkpt lat="45.23345" lon="5.88561">
        <ele>250.66</ele>
        <time>2019-05-27T11:50:11.000Z</time>
      </trkpt>
      <trkpt lat="45.23361" lon="5.88578">
        <ele>253.03</ele>
        <time>2019-05-27T11:50:16.000Z</time>
      </trkpt>
      <trkpt lat="45.23379" lon="5.88596">
        <ele>256.34</ele>
        <time>2019-05-27T11:50:21.000Z</time>
      </trkpt>
      <trkpt lat="45.23394" lon="5.88612">
        <ele>258.99</ele>
        <time>2019-05-27T11:50:26.000Z</time>
      </trkpt>
      <trkpt lat="45.23407" lon="5.88632">
        <ele>259.56</ele>
        <time>2019-05-27T11:50:31.000Z</time>
      </trkpt>
      <trkpt lat="45.23417" lon="5.8866">
        <ele>260.67</ele>
        <time>2019-05-27T11:50:36.000Z</time>
      </trkpt>
      <trkpt lat="45.23424" lon="5.88688">
        <ele>261.16</ele>
        <time>2019-05-27T11:50:41.000Z</time>
      </trkpt>
      <trkpt lat="45.23437" lon="5.88722">
        <ele>261.83</ele>
        <time>2019-05-27T11:50:46.000Z</time>
      </trkpt>
      <trkpt lat="45.23455" lon="5.88741">
        <ele>262.55</ele>
        <time>2019-05-27T11:50:51.000Z</time>
      </trkpt>
      <trkpt lat="45.23474" lon="5.8876">
        <ele>263.66</ele>
        <time>2019-05-27T11:50:56.000Z</time>
      </trkpt>
      <trkpt lat="45.23491" lon="5.88781">
        <ele>262.32</ele>
        <time>2019-05-27T11:51:01.000Z</time>
      </trkpt>
      <trkpt lat="45.23509" lon="5.88797">
        <ele>263.86</ele>
        <time>2019-05-27T11:51:06.000Z</time>
      </trkpt>
      <trkpt lat="45.23524" lon="5.88809">
        <ele>263.71</ele>
        <time>2019-05-27T11:51:11.000Z</time>
      </trkpt>
      <trkpt lat="45.23544" lon="5.88822">
        <ele>265.76</ele>
        <time>2019-05-27T11:51:16.000Z</time>
      </trkpt>
      <trkpt lat="45.23558" lon="5.88835">
        <ele>269.29</ele>
        <time>2019-05-27T11:51:21.000Z</time>
      </trkpt>
      <trkpt lat="45.23571" lon="5.88846">
        <ele>270.63</ele>
        <time>2019-05-27T11:51:26.000Z</time>
      </trkpt>
      <trkpt lat="45.23588" lon="5.88858">
        <ele>273.7</ele>
        <time>2019-05-27T11:51:31.000Z</time>
      </trkpt>
      <trkpt lat="45.23599" lon="5.88879">
        <ele>275.22</ele>
        <time>2019-05-27T11:51:36.000Z</time>
      </trkpt>
      <trkpt lat="45.23613" lon="5.88897">
        <ele>279.24</ele>
        <time>2019-05-27T11:51:41.000Z</time>
      </trkpt>
      <trkpt lat="45.23624" lon="5.88918">
        <ele>282.44</ele>
        <time>2019-05-27T11:51:46.000Z</time>
      </trkpt>
      <trkpt lat="45.23636" lon="5.88936">
        <ele>284.54</ele>
        <time>2019-05-27T11:51:51.000Z</time>
      </trkpt>
      <trkpt lat="45.23647" lon="5.88955">
        <ele>286</ele>
        <time>2019-05-27T11:51:56.000Z</time>
      </trkpt>
      <trkpt lat="45.2366" lon="5.88974">
        <ele>289.82</ele>
        <time>2019-05-27T11:52:01.000Z</time>
      </trkpt>
      <trkpt lat="45.23671" lon="5.88995">
        <ele>290.39</ele>
        <time>2019-05-27T11:52:06.000Z</time>
      </trkpt>
      <trkpt lat="45.23682" lon="5.89013">
        <ele>294.77</ele>
        <time>2019-05-27T11:52:11.000Z</time>
      </trkpt>
      <trkpt lat="45.23697" lon="5.8903">
        <ele>296.1</ele>
        <time>2019-05-27T11:52:16.000Z</time>
      </trkpt>
      <trkpt lat="45.23719" lon="5.89043">
        <ele>297.26</ele>
        <time>2019-05-27T11:52:21.000Z</time>
      </trkpt>
      <trkpt lat="45.23739" lon="5.89057">
        <ele>295.09</ele>
        <time>2019-05-27T11:52:26.000Z</time>
      </trkpt>
      <trkpt lat="45.23753" lon="5.89078">
        <ele>297.59</ele>
        <time>2019-05-27T11:52:31.000Z</time>
      </trkpt>
      <trkpt lat="45.23765" lon="5.89102">
        <ele>300.26</ele>
        <time>2019-05-27T11:52:36.000Z</time>
      </trkpt>
      <trkpt lat="45.23773" lon="5.89123">
        <ele>306.03</ele>
        <time>2019-05-27T11:52:41.000Z</time>
      </trkpt>
      <trkpt lat="45.2378" lon="5.89147">
        <ele>309.95</ele>
        <time>2019-05-27T11:52:46.000Z</time>
      </trkpt>
      <trkpt lat="45.23787" lon="5.89167">
        <ele>309.18</ele>
        <time>2019-05-27T11:52:51.000Z</time>
      </trkpt>
      <trkpt lat="45.23797" lon="5.89193">
        <ele>310</ele>
        <time>2019-05-27T11:52:56.000Z</time>
      </trkpt>
      <trkpt lat="45.23806" lon="5.89213">
        <ele>311.91</ele>
        <time>2019-05-27T11:53:01.000Z</time>
      </trkpt>
      <trkpt lat="45.23819" lon="5.89228">
        <ele>315.46</ele>
        <time>2019-05-27T11:53:06.000Z</time>
      </trkpt>
      <trkpt lat="45.2383" lon="5.89246">
        <ele>316.29</ele>
        <time>2019-05-27T11:53:11.000Z</time>
      </trkpt>
      <trkpt lat="45.23844" lon="5.89267">
        <ele>318.87</ele>
        <time>2019-05-27T11:53:16.000Z</time>
      </trkpt>
      <trkpt lat="45.23862" lon="5.89284">
        <ele>321.31</ele>
        <time>2019-05-27T11:53:21.000Z</time>
      </trkpt>
      <trkpt lat="45.23877" lon="5.89298">
        <ele>321.59</ele>
        <time>2019-05-27T11:53:26.000Z</time>
      </trkpt>
      <trkpt lat="45.23891" lon="5.89317">
        <ele>326.46</ele>
        <time>2019-05-27T11:53:31.000Z</time>
      </trkpt>
      <trkpt lat="45.23899" lon="5.89339">
        <ele>328.64</ele>
        <time>2019-05-27T11:53:36.000Z</time>
      </trkpt>
      <trkpt lat="45.23913" lon="5.89359">
        <ele>328.93</ele>
        <time>2019-05-27T11:53:41.000Z</time>
      </trkpt>
      <trkpt lat="45.23928" lon="5.89373">
        <ele>330.16</ele>
        <time>2019-05-27T11:53:46.000Z</time>
      </trkpt>
      <trkpt lat="45.23945" lon="5.89393">
        <ele>335.29</ele>
        <time>2019-05-27T11:53:51.000Z</time>
      </trkpt>
      <trkpt lat="45.23958" lon="5.89412">
        <ele>336.41</ele>
        <time>2019-05-27T11:53:56.000Z</time>
      </trkpt>
      <trkpt lat="45.23974" lon="5.89423">
        <ele>338.25</ele>
        <time>2019-05-27T11:54:01.000Z</time>
      </trkpt>
      <trkpt lat="45.23989" lon="5.89438">
        <ele>342.07</ele>
        <time>2019-05-27T11:54:06.000Z</time>
      </trkpt>
      <trkpt lat="45.24008" lon="5.89449">
        <ele>343.14</ele>
        <time>2019-05-27T11:54:11.000Z</time>
      </trkpt>
      <trkpt lat="45.24027" lon="5.89462">
        <ele>343.52</ele>
        <time>2019-05-27T11:54:16.000Z</time>
      </trkpt>
      <trkpt lat="45.24044" lon="5.89477">
        <ele>342.8</ele>
        <time>2019-05-27T11:54:21.000Z</time>
      </trkpt>
      <trkpt lat="45.24058" lon="5.89491">
        <ele>345.39</ele>
        <time>2019-05-27T11:54:26.000Z</time>
      </trkpt>
      <trkpt lat="45.24072" lon="5.89508">
        <ele>346.37</ele>
        <time>2019-05-27T11:54:31.000Z</time>
      </trkpt>
      <trkpt lat="45.24082" lon="5.89527">
        <ele>349.05</ele>
        <time>2019-05-27T11:54:36.000Z</time>
      </trkpt>
      <trkpt lat="45.24093" lon="5.89544">
        <ele>350.79</ele>
        <time>2019-05-27T11:54:41.000Z</time>
      </trkpt>
      <trkpt lat="45.24109" lon="5.89559">
        <ele>351.58</ele>
        <time>2019-05-27T11:54:46.000Z</time>
      </trkpt>
      <trkpt lat="45.24124" lon="5.89575">
        <ele>352.56</ele>
        <time>2019-05-27T11:54:51.000Z</time>
      </trkpt>
      <trkpt lat="45.24133" lon="5.89598">
        <ele>354.08</ele>
        <time>2019-05-27T11:54:56.000Z</time>
      </trkpt>
      <trkpt lat="45.24144" lon="5.89619">
        <ele>359</ele>
        <time>2019-05-27T11:55:01.000Z</time>
      </trkpt>
      <trkpt lat="45.24152" lon="5.8964">
        <ele>360.09</ele>
        <time>2019-05-27T11:55:06.000Z</time>
      </trkpt>
      <trkpt lat="45.24163" lon="5.89657">
        <ele>365.65</ele>
        <time>2019-05-27T11:55:11.000Z</time>
      </trkpt>
      <trkpt lat="45.24176" lon="5.89675">
        <ele>368.2</ele>
        <time>2019-05-27T11:55:16.000Z</time>
      </trkpt>
      <trkpt lat="45.24186" lon="5.89699">
        <ele>367.18</ele>
        <time>2019-05-27T11:55:21.000Z</time>
      </trkpt>
      <trkpt lat="45.24195" lon="5.89721">
        <ele>367.43</ele>
        <time>2019-05-27T11:55:26.000Z</time>
      </trkpt>
      <trkpt lat="45.24204" lon="5.89741">
        <ele>370.5</ele>
        <time>2019-05-27T11:55:31.000Z</time>
      </trkpt>
      <trkpt lat="45.24213" lon="5.89761">
        <ele>374.21</ele>
        <time>2019-05-27T11:55:36.000Z</time>
      </trkpt>
      <trkpt lat="45.24229" lon="5.89778">
        <ele>377.82</ele>
        <time>2019-05-27T11:55:41.000Z</time>
      </trkpt>
      <trkpt lat="45.24243" lon="5.89798">
        <ele>377.1</ele>
        <time>2019-05-27T11:55:46.000Z</time>
      </trkpt>
      <trkpt lat="45.24255" lon="5.89821">
        <ele>378.5</ele>
        <time>2019-05-27T11:55:51.000Z</time>
      </trkpt>
      <trkpt lat="45.24242" lon="5.8982">
        <ele>382.56</ele>
        <time>2019-05-27T11:55:56.000Z</time>
      </trkpt>
      <trkpt lat="45.24229" lon="5.89797">
        <ele>384.67</ele>
        <time>2019-05-27T11:56:01.000Z</time>
      </trkpt>
      <trkpt lat="45.24215" lon="5.89777">
        <ele>386.4</ele>
        <time>2019-05-27T11:56:06.000Z</time>
      </trkpt>
      <trkpt lat="45.24201" lon="5.89759">
        <ele>391.71</ele>
        <time>2019-05-27T11:56:11.000Z</time>
      </trkpt>
      <trkpt lat="45.24187" lon="5.8974">
        <ele>393.54</ele>
        <time>2019-05-27T11:56:16.000Z</time>
      </trkpt>
      <trkpt lat="45.24171" lon="5.89729">
        <ele>395.63</ele>
        <time>2019-05-27T11:56:21.000Z</time>
      </trkpt>
      <trkpt lat="45.24155" lon="5.89719">
        <ele>394.67</ele>
        <time>2019-05-27T11:56:26.000Z</time>
      </trkpt>
      <trkpt lat="45.24139" lon="5.89711">
        <ele>395.86</ele>
        <time>2019-05-27T11:56:31.000Z</time>
      </trkpt>
      <trkpt lat="45.2412" lon="5.89702">
        <ele>398.52</ele>
        <time>2019-05-27T11:56:36.000Z</time>
      </trkpt>
      <trkpt lat="45.24102" lon="5.89697">
        <ele>398.53</ele>
        <time>2019-05-27T11:56:41.000Z</time>
      </trkpt>
      <trkpt lat="45.24084" lon="5.89692">
        <ele>400.19</ele>
        <time>2019-05-27T11:56:46.000Z</time>
      </trkpt>
      <trkpt lat="45.24065" lon="5.89694">
        <ele>402.65</ele>
        <time>2019-05-27T11:56:51.000Z</time>
      </trkpt>
      <trkpt lat="45.24043" lon="5.89694">
        <ele>406.56</ele>
        <time>2019-05-27T11:56:56.000Z</time>
      </trkpt>
      <trkpt lat="45.24023" lon="5.89697">
        <ele>408.78</ele>
        <time>2019-05-27T11:57:01.000Z</time>
      </trkpt>
      <trkpt lat="45.24011" lon="5.89684">
        <ele>408.55</ele>
        <time>2019-05-27T11:57:06.000Z</time>
      </trkpt>
      <trkpt lat="45.23993" lon="5.89669">
        <ele>408.5</ele>
        <time>2019-05-27T11:57:11.000Z</time>
      </trkpt>
      <trkpt lat="45.23977" lon="5.89657">
        <ele>408.66</ele>
        <time>2019-05-27T11:57:16.000Z</time>
      </trkpt>
      <trkpt lat="45.23962" lon="5.89646">
        <ele>409.41</ele>
        <time>2019-05-27T11:57:21.000Z</time>
      </trkpt>
      <trkpt lat="45.23947" lon="5.89636">
        <ele>409.47</ele>
        <time>2019-05-27T11:57:26.000Z</time>
      </trkpt>
      <trkpt lat="45.23929" lon="5.89629">
        <ele>413.66</ele>
        <time>2019-05-27T11:57:31.000Z</time>
      </trkpt>
      <trkpt lat="45.23908" lon="5.89616">
        <ele>416.31</ele>
        <time>2019-05-27T11:57:36.000Z</time>
      </trkpt>
      <trkpt lat="45.23888" lon="5.8961">
        <ele>414.99</ele>
        <time>2019-05-27T11:57:41.000Z</time>
      </trkpt>
      <trkpt lat="45.23872" lon="5.89604">
        <ele>417.75</ele>
        <time>2019-05-27T11:57:46.000Z</time>
      </trkpt>
      <trkpt lat="45.23851" lon="5.89592">
        <ele>420.71</ele>
        <time>2019-05-27T11:57:51.000Z</time>
      </trkpt>
      <trkpt lat="45.23837" lon="5.89584">
        <ele>420.89</ele>
        <time>2019-05-27T11:57:56.000Z</time>
      </trkpt>
      <trkpt lat="45.23823" lon="5.89577">
        <ele>425.82</ele>
        <time>2019-05-27T11:58:01.000Z</time>
      </trkpt>
      <trkpt lat="45.23808" lon="5.89565">
        <ele>431.95</ele>
        <time>2019-05-27T11:58:06.000Z</time>
      </trkpt>
      <trkpt lat="45.23794" lon="5.89558">
        <ele>432.37</ele>
        <time>2019-05-27T11:58:11.000Z</time>
      </trkpt>
      <trkpt lat="45.23784" lon="5.8955">
        <ele>434.43</ele>
        <time>2019-05-27T11:58:17.000Z</time>
      </trkpt>
      <trkpt lat="45.23767" lon="5.89534">
        <ele>440.66</ele>
        <time>2019-05-27T11:58:22.000Z</time>
      </trkpt>
      <trkpt lat="45.23748" lon="5.89519">
        <ele>445.35</ele>
        <time>2019-05-27T11:58:27.000Z</time>
      </trkpt>
      <trkpt lat="45.23729" lon="5.89509">
        <ele>446.24</ele>
        <time>2019-05-27T11:58:32.000Z</time>
      </trkpt>
      <trkpt lat="45.23711" lon="5.89495">
        <ele>450.56</ele>
        <time>2019-05-27T11:58:37.000Z</time>
      </trkpt>
      <trkpt lat="45.23695" lon="5.89482">
        <ele>455.4</ele>
        <time>2019-05-27T11:58:42.000Z</time>
      </trkpt>
      <trkpt lat="45.23678" lon="5.89471">
        <ele>456.98</ele>
        <time>2019-05-27T11:58:47.000Z</time>
      </trkpt>
      <trkpt lat="45.23662" lon="5.89466">
        <ele>454</ele>
        <time>2019-05-27T11:58:52.000Z</time>
      </trkpt>
      <trkpt lat="45.23643" lon="5.89458">
        <ele>452.45</ele>
        <time>2019-05-27T11:58:57.000Z</time>
      </trkpt>
      <trkpt lat="45.23623" lon="5.89451">
        <ele>454.08</ele>
        <time>2019-05-27T11:59:02.000Z</time>
      </trkpt>
      <trkpt lat="45.23608" lon="5.89446">
        <ele>456.43</ele>
        <time>2019-05-27T11:59:07.000Z</time>
      </trkpt>
      <trkpt lat="45.23587" lon="5.89441">
        <ele>459.25</ele>
        <time>2019-05-27T11:59:12.000Z</time>
      </trkpt>
      <trkpt lat="45.23564" lon="5.89435">
        <ele>457.45</ele>
        <time>2019-05-27T11:59:17.000Z</time>
      </trkpt>
      <trkpt lat="45.23541" lon="5.89433">
        <ele>455.26</ele>
        <time>2019-05-27T11:59:22.000Z</time>
      </trkpt>
      <trkpt lat="45.23515" lon="5.89433">
        <ele>456.02</ele>
        <time>2019-05-27T11:59:27.000Z</time>
      </trkpt>
      <trkpt lat="45.23494" lon="5.89426">
        <ele>459.88</ele>
        <time>2019-05-27T11:59:32.000Z</time>
      </trkpt>
      <trkpt lat="45.23473" lon="5.89415">
        <ele>461.73</ele>
        <time>2019-05-27T11:59:37.000Z</time>
      </trkpt>
      <trkpt lat="45.23452" lon="5.894">
        <ele>466.91</ele>
        <time>2019-05-27T11:59:42.000Z</time>
      </trkpt>
      <trkpt lat="45.23434" lon="5.89379">
        <ele>475.5</ele>
        <time>2019-05-27T11:59:47.000Z</time>
      </trkpt>
      <trkpt lat="45.23415" lon="5.89356">
        <ele>480.21</ele>
        <time>2019-05-27T11:59:52.000Z</time>
      </trkpt>
      <trkpt lat="45.23398" lon="5.89342">
        <ele>479.94</ele>
        <time>2019-05-27T11:59:57.000Z</time>
      </trkpt>
      <trkpt lat="45.23384" lon="5.89334">
        <ele>481.13</ele>
        <time>2019-05-27T12:00:02.000Z</time>
      </trkpt>
      <trkpt lat="45.23368" lon="5.89324">
        <ele>480.27</ele>
        <time>2019-05-27T12:00:07.000Z</time>
      </trkpt>
      <trkpt lat="45.23353" lon="5.89315">
        <ele>479.66</ele>
        <time>2019-05-27T12:00:12.000Z</time>
      </trkpt>
      <trkpt lat="45.23335" lon="5.89302">
        <ele>481.43</ele>
        <time>2019-05-27T12:00:17.000Z</time>
      </trkpt>
      <trkpt lat="45.23316" lon="5.89292">
        <ele>483.29</ele>
        <time>2019-05-27T12:00:22.000Z</time>
      </trkpt>
      <trkpt lat="45.23298" lon="5.8929">
        <ele>483.94</ele>
        <time>2019-05-27T12:00:27.000Z</time>
      </trkpt>
      <trkpt lat="45.23276" lon="5.89302">
        <ele>488.09</ele>
        <time>2019-05-27T12:00:32.000Z</time>
      </trkpt>
      <trkpt lat="45.23271" lon="5.89327">
        <ele>488.08</ele>
        <time>2019-05-27T12:00:37.000Z</time>
      </trkpt>
      <trkpt lat="45.2327" lon="5.89356">
        <ele>489.83</ele>
        <time>2019-05-27T12:00:42.000Z</time>
      </trkpt>
      <trkpt lat="45.23271" lon="5.89385">
        <ele>488.45</ele>
        <time>2019-05-27T12:00:47.000Z</time>
      </trkpt>
      <trkpt lat="45.2327" lon="5.89413">
        <ele>489.13</ele>
        <time>2019-05-27T12:00:52.000Z</time>
      </trkpt>
      <trkpt lat="45.23261" lon="5.89439">
        <ele>492.57</ele>
        <time>2019-05-27T12:00:57.000Z</time>
      </trkpt>
      <trkpt lat="45.23241" lon="5.89443">
        <ele>492.95</ele>
        <time>2019-05-27T12:01:02.000Z</time>
      </trkpt>
      <trkpt lat="45.23224" lon="5.89426">
        <ele>495.92</ele>
        <time>2019-05-27T12:01:07.000Z</time>
      </trkpt>
      <trkpt lat="45.23204" lon="5.89414">
        <ele>499.01</ele>
        <time>2019-05-27T12:01:12.000Z</time>
      </trkpt>
      <trkpt lat="45.23183" lon="5.89413">
        <ele>496.91</ele>
        <time>2019-05-27T12:01:17.000Z</time>
      </trkpt>
      <trkpt lat="45.23163" lon="5.89412">
        <ele>498.89</ele>
        <time>2019-05-27T12:01:22.000Z</time>
      </trkpt>
      <trkpt lat="45.23145" lon="5.89429">
        <ele>501.57</ele>
        <time>2019-05-27T12:01:27.000Z</time>
      </trkpt>
      <trkpt lat="45.23128" lon="5.8945">
        <ele>502.05</ele>
        <time>2019-05-27T12:01:32.000Z</time>
      </trkpt>
      <trkpt lat="45.23116" lon="5.89475">
        <ele>501.21</ele>
        <time>2019-05-27T12:01:37.000Z</time>
      </trkpt>
      <trkpt lat="45.23114" lon="5.89507">
        <ele>502.25</ele>
        <time>2019-05-27T12:01:42.000Z</time>
      </trkpt>
      <trkpt lat="45.23119" lon="5.89537">
        <ele>504.92</ele>
        <time>2019-05-27T12:01:47.000Z</time>
      </trkpt>
      <trkpt lat="45.2313" lon="5.8956">
        <ele>510.02</ele>
        <time>2019-05-27T12:01:52.000Z</time>
      </trkpt>
      <trkpt lat="45.23148" lon="5.89581">
        <ele>512.58</ele>
        <time>2019-05-27T12:01:57.000Z</time>
      </trkpt>
      <trkpt lat="45.23158" lon="5.89608">
        <ele>515.31</ele>
        <time>2019-05-27T12:02:02.000Z</time>
      </trkpt>
      <trkpt lat="45.23162" lon="5.89635">
        <ele>517.28</ele>
        <time>2019-05-27T12:02:07.000Z</time>
      </trkpt>
      <trkpt lat="45.23153" lon="5.89663">
        <ele>518.58</ele>
        <time>2019-05-27T12:02:12.000Z</time>
      </trkpt>
      <trkpt lat="45.2314" lon="5.89681">
        <ele>519.68</ele>
        <time>2019-05-27T12:02:17.000Z</time>
      </trkpt>
      <trkpt lat="45.23125" lon="5.89697">
        <ele>522.02</ele>
        <time>2019-05-27T12:02:22.000Z</time>
      </trkpt>
      <trkpt lat="45.2312" lon="5.89719">
        <ele>524.3</ele>
        <time>2019-05-27T12:02:27.000Z</time>
      </trkpt>
      <trkpt lat="45.23113" lon="5.89746">
        <ele>528.48</ele>
        <time>2019-05-27T12:02:32.000Z</time>
      </trkpt>
      <trkpt lat="45.23097" lon="5.89759">
        <ele>530.84</ele>
        <time>2019-05-27T12:02:37.000Z</time>
      </trkpt>
      <trkpt lat="45.23075" lon="5.89754">
        <ele>532.83</ele>
        <time>2019-05-27T12:02:42.000Z</time>
      </trkpt>
      <trkpt lat="45.23052" lon="5.89747">
        <ele>535.58</ele>
        <time>2019-05-27T12:02:47.000Z</time>
      </trkpt>
      <trkpt lat="45.23033" lon="5.89752">
        <ele>535.86</ele>
        <time>2019-05-27T12:02:52.000Z</time>
      </trkpt>
      <trkpt lat="45.23023" lon="5.89776">
        <ele>534.68</ele>
        <time>2019-05-27T12:02:57.000Z</time>
      </trkpt>
      <trkpt lat="45.23024" lon="5.89805">
        <ele>535.08</ele>
        <time>2019-05-27T12:03:02.000Z</time>
      </trkpt>
      <trkpt lat="45.23028" lon="5.89834">
        <ele>535.31</ele>
        <time>2019-05-27T12:03:07.000Z</time>
      </trkpt>
      <trkpt lat="45.23009" lon="5.89848">
        <ele>537.52</ele>
        <time>2019-05-27T12:03:12.000Z</time>
      </trkpt>
      <trkpt lat="45.2299" lon="5.89843">
        <ele>538.32</ele>
        <time>2019-05-27T12:03:17.000Z</time>
      </trkpt>
      <trkpt lat="45.22969" lon="5.89839">
        <ele>539.53</ele>
        <time>2019-05-27T12:03:22.000Z</time>
      </trkpt>
      <trkpt lat="45.22945" lon="5.89833">
        <ele>542.05</ele>
        <time>2019-05-27T12:03:27.000Z</time>
      </trkpt>
      <trkpt lat="45.22923" lon="5.8983">
        <ele>545.89</ele>
        <time>2019-05-27T12:03:32.000Z</time>
      </trkpt>
      <trkpt lat="45.22902" lon="5.89829">
        <ele>549.15</ele>
        <time>2019-05-27T12:03:37.000Z</time>
      </trkpt>
      <trkpt lat="45.22878" lon="5.89821">
        <ele>552.43</ele>
        <time>2019-05-27T12:03:42.000Z</time>
      </trkpt>
      <trkpt lat="45.22864" lon="5.89798">
        <ele>550.99</ele>
        <time>2019-05-27T12:03:47.000Z</time>
      </trkpt>
      <trkpt lat="45.22856" lon="5.89781">
        <ele>553.86</ele>
        <time>2019-05-27T12:03:52.000Z</time>
      </trkpt>
      <trkpt lat="45.22834" lon="5.8978">
        <ele>556.43</ele>
        <time>2019-05-27T12:03:57.000Z</time>
      </trkpt>
      <trkpt lat="45.22816" lon="5.89792">
        <ele>558.58</ele>
        <time>2019-05-27T12:04:02.000Z</time>
      </trkpt>
      <trkpt lat="45.22798" lon="5.89801">
        <ele>562.29</ele>
        <time>2019-05-27T12:04:07.000Z</time>
      </trkpt>
      <trkpt lat="45.22775" lon="5.89794">
        <ele>564.71</ele>
        <time>2019-05-27T12:04:12.000Z</time>
      </trkpt>
      <trkpt lat="45.22755" lon="5.89781">
        <ele>567.04</ele>
        <time>2019-05-27T12:04:17.000Z</time>
      </trkpt>
      <trkpt lat="45.22737" lon="5.8977">
        <ele>570.35</ele>
        <time>2019-05-27T12:04:22.000Z</time>
      </trkpt>
      <trkpt lat="45.22721" lon="5.89761">
        <ele>574.28</ele>
        <time>2019-05-27T12:04:27.000Z</time>
      </trkpt>
      <trkpt lat="45.22711" lon="5.89755">
        <ele>575.81</ele>
        <time>2019-05-27T12:05:28.000Z</time>
      </trkpt>
      <trkpt lat="45.22693" lon="5.89753">
        <ele>581.74</ele>
        <time>2019-05-27T12:05:33.000Z</time>
      </trkpt>
      <trkpt lat="45.22673" lon="5.89754">
        <ele>577.48</ele>
        <time>2019-05-27T12:05:38.000Z</time>
      </trkpt>
      <trkpt lat="45.22657" lon="5.89754">
        <ele>577.62</ele>
        <time>2019-05-27T12:05:43.000Z</time>
      </trkpt>
      <trkpt lat="45.2264" lon="5.89755">
        <ele>576.18</ele>
        <time>2019-05-27T12:05:48.000Z</time>
      </trkpt>
      <trkpt lat="45.22623" lon="5.89757">
        <ele>577.86</ele>
        <time>2019-05-27T12:05:53.000Z</time>
      </trkpt>
      <trkpt lat="45.22602" lon="5.8976">
        <ele>577.93</ele>
        <time>2019-05-27T12:05:58.000Z</time>
      </trkpt>
      <trkpt lat="45.22585" lon="5.89768">
        <ele>581.67</ele>
        <time>2019-05-27T12:06:03.000Z</time>
      </trkpt>
      <trkpt lat="45.22569" lon="5.89792">
        <ele>582.72</ele>
        <time>2019-05-27T12:06:08.000Z</time>
      </trkpt>
      <trkpt lat="45.22554" lon="5.89807">
        <ele>583.47</ele>
        <time>2019-05-27T12:06:13.000Z</time>
      </trkpt>
      <trkpt lat="45.22534" lon="5.89813">
        <ele>586.96</ele>
        <time>2019-05-27T12:06:18.000Z</time>
      </trkpt>
      <trkpt lat="45.22515" lon="5.89812">
        <ele>589.65</ele>
        <time>2019-05-27T12:06:23.000Z</time>
      </trkpt>
      <trkpt lat="45.22496" lon="5.89816">
        <ele>586.29</ele>
        <time>2019-05-27T12:06:28.000Z</time>
      </trkpt>
      <trkpt lat="45.22477" lon="5.89826">
        <ele>587.99</ele>
        <time>2019-05-27T12:06:33.000Z</time>
      </trkpt>
      <trkpt lat="45.22459" lon="5.89833">
        <ele>588.45</ele>
        <time>2019-05-27T12:06:38.000Z</time>
      </trkpt>
      <trkpt lat="45.22443" lon="5.89832">
        <ele>591.77</ele>
        <time>2019-05-27T12:06:43.000Z</time>
      </trkpt>
      <trkpt lat="45.22423" lon="5.89826">
        <ele>596.49</ele>
        <time>2019-05-27T12:06:48.000Z</time>
      </trkpt>
      <trkpt lat="45.22403" lon="5.89818">
        <ele>597.12</ele>
        <time>2019-05-27T12:06:53.000Z</time>
      </trkpt>
      <trkpt lat="45.22385" lon="5.89808">
        <ele>600.49</ele>
        <time>2019-05-27T12:06:58.000Z</time>
      </trkpt>
      <trkpt lat="45.22365" lon="5.89797">
        <ele>605.27</ele>
        <time>2019-05-27T12:07:03.000Z</time>
      </trkpt>
      <trkpt lat="45.22348" lon="5.89787">
        <ele>611.24</ele>
        <time>2019-05-27T12:07:08.000Z</time>
      </trkpt>
      <trkpt lat="45.22331" lon="5.89781">
        <ele>611.17</ele>
        <time>2019-05-27T12:07:13.000Z</time>
      </trkpt>
      <trkpt lat="45.22311" lon="5.89772">
        <ele>615.2</ele>
        <time>2019-05-27T12:07:18.000Z</time>
      </trkpt>
      <trkpt lat="45.22292" lon="5.89764">
        <ele>612.66</ele>
        <time>2019-05-27T12:07:23.000Z</time>
      </trkpt>
      <trkpt lat="45.22273" lon="5.89756">
        <ele>614.59</ele>
        <time>2019-05-27T12:07:28.000Z</time>
      </trkpt>
      <trkpt lat="45.22251" lon="5.89745">
        <ele>616.41</ele>
        <time>2019-05-27T12:07:33.000Z</time>
      </trkpt>
      <trkpt lat="45.22236" lon="5.89733">
        <ele>620.49</ele>
        <time>2019-05-27T12:07:38.000Z</time>
      </trkpt>
      <trkpt lat="45.22221" lon="5.89715">
        <ele>623.27</ele>
        <time>2019-05-27T12:07:43.000Z</time>
      </trkpt>
      <trkpt lat="45.22207" lon="5.89695">
        <ele>627.52</ele>
        <time>2019-05-27T12:07:48.000Z</time>
      </trkpt>
      <trkpt lat="45.22191" lon="5.89679">
        <ele>630.39</ele>
        <time>2019-05-27T12:07:53.000Z</time>
      </trkpt>
      <trkpt lat="45.22174" lon="5.89685">
        <ele>631.03</ele>
        <time>2019-05-27T12:07:58.000Z</time>
      </trkpt>
      <trkpt lat="45.22154" lon="5.89701">
        <ele>631.35</ele>
        <time>2019-05-27T12:08:03.000Z</time>
      </trkpt>
      <trkpt lat="45.22138" lon="5.89717">
        <ele>634.75</ele>
        <time>2019-05-27T12:08:08.000Z</time>
      </trkpt>
      <trkpt lat="45.22122" lon="5.89735">
        <ele>635.24</ele>
        <time>2019-05-27T12:08:13.000Z</time>
      </trkpt>
      <trkpt lat="45.22108" lon="5.89748">
        <ele>634.95</ele>
        <time>2019-05-27T12:08:18.000Z</time>
      </trkpt>
      <trkpt lat="45.22089" lon="5.89749">
        <ele>636.59</ele>
        <time>2019-05-27T12:08:23.000Z</time>
      </trkpt>
      <trkpt lat="45.22069" lon="5.8975">
        <ele>637.37</ele>
        <time>2019-05-27T12:08:28.000Z</time>
      </trkpt>
      <trkpt lat="45.22054" lon="5.89739">
        <ele>636.09</ele>
        <time>2019-05-27T12:08:33.000Z</time>
      </trkpt>
      <trkpt lat="45.22044" lon="5.89723">
        <ele>637.05</ele>
        <time>2019-05-27T12:08:38.000Z</time>
      </trkpt>
      <trkpt lat="45.22029" lon="5.89707">
        <ele>640.73</ele>
        <time>2019-05-27T12:08:43.000Z</time>
      </trkpt>
      <trkpt lat="45.22007" lon="5.8969">
        <ele>640.23</ele>
        <time>2019-05-27T12:08:48.000Z</time>
      </trkpt>
      <trkpt lat="45.2199" lon="5.89675">
        <ele>640.09</ele>
        <time>2019-05-27T12:08:53.000Z</time>
      </trkpt>
      <trkpt lat="45.21977" lon="5.89648">
        <ele>642.45</ele>
        <time>2019-05-27T12:08:58.000Z</time>
      </trkpt>
      <trkpt lat="45.21958" lon="5.89626">
        <ele>644.07</ele>
        <time>2019-05-27T12:09:03.000Z</time>
      </trkpt>
      <trkpt lat="45.21939" lon="5.89613">
        <ele>645.2</ele>
        <time>2019-05-27T12:09:08.000Z</time>
      </trkpt>
      <trkpt lat="45.21916" lon="5.89607">
        <ele>645.96</ele>
        <time>2019-05-27T12:09:13.000Z</time>
      </trkpt>
      <trkpt lat="45.21895" lon="5.8961">
        <ele>649.48</ele>
        <time>2019-05-27T12:09:18.000Z</time>
      </trkpt>
      <trkpt lat="45.21871" lon="5.89606">
        <ele>651.61</ele>
        <time>2019-05-27T12:09:23.000Z</time>
      </trkpt>
      <trkpt lat="45.21855" lon="5.89606">
        <ele>649.82</ele>
        <time>2019-05-27T12:09:28.000Z</time>
      </trkpt>
      <trkpt lat="45.21839" lon="5.89599">
        <ele>649.97</ele>
        <time>2019-05-27T12:09:33.000Z</time>
      </trkpt>
      <trkpt lat="45.21814" lon="5.89584">
        <ele>648.96</ele>
        <time>2019-05-27T12:09:38.000Z</time>
      </trkpt>
      <trkpt lat="45.21795" lon="5.89566">
        <ele>649.36</ele>
        <time>2019-05-27T12:09:43.000Z</time>
      </trkpt>
      <trkpt lat="45.21778" lon="5.89554">
        <ele>649.48</ele>
        <time>2019-05-27T12:09:48.000Z</time>
      </trkpt>
      <trkpt lat="45.21757" lon="5.89546">
        <ele>651.96</ele>
        <time>2019-05-27T12:09:53.000Z</time>
      </trkpt>
      <trkpt lat="45.21738" lon="5.89531">
        <ele>651.35</ele>
        <time>2019-05-27T12:09:58.000Z</time>
      </trkpt>
      <trkpt lat="45.21711" lon="5.89478">
        <ele>656.62</ele>
        <time>2019-05-27T12:10:03.000Z</time>
      </trkpt>
      <trkpt lat="45.21713" lon="5.89438">
        <ele>655.63</ele>
        <time>2019-05-27T12:10:08.000Z</time>
      </trkpt>
      <trkpt lat="45.2173" lon="5.89437">
        <ele>660.3</ele>
        <time>2019-05-27T12:10:13.000Z</time>
      </trkpt>
      <trkpt lat="45.21748" lon="5.89429">
        <ele>665.29</ele>
        <time>2019-05-27T12:10:18.000Z</time>
      </trkpt>
      <trkpt lat="45.21766" lon="5.89419">
        <ele>669.29</ele>
        <time>2019-05-27T12:10:23.000Z</time>
      </trkpt>
      <trkpt lat="45.21789" lon="5.89405">
        <ele>673.21</ele>
        <time>2019-05-27T12:10:28.000Z</time>
      </trkpt>
      <trkpt lat="45.21807" lon="5.89396">
        <ele>672.16</ele>
        <time>2019-05-27T12:10:33.000Z</time>
      </trkpt>
      <trkpt lat="45.21823" lon="5.89381">
        <ele>670.71</ele>
        <time>2019-05-27T12:10:38.000Z</time>
      </trkpt>
      <trkpt lat="45.21838" lon="5.89362">
        <ele>669.1</ele>
        <time>2019-05-27T12:10:43.000Z</time>
      </trkpt>
      <trkpt lat="45.21848" lon="5.8934">
        <ele>670.61</ele>
        <time>2019-05-27T12:10:48.000Z</time>
      </trkpt>
      <trkpt lat="45.2185" lon="5.89309">
        <ele>670.77</ele>
        <time>2019-05-27T12:10:53.000Z</time>
      </trkpt>
      <trkpt lat="45.21864" lon="5.8928">
        <ele>674.05</ele>
        <time>2019-05-27T12:10:58.000Z</time>
      </trkpt>
      <trkpt lat="45.21875" lon="5.89266">
        <ele>676.93</ele>
        <time>2019-05-27T12:11:03.000Z</time>
      </trkpt>
      <trkpt lat="45.21867" lon="5.89277">
        <ele>674.67</ele>
        <time>2019-05-27T12:11:09.000Z</time>
      </trkpt>
      <trkpt lat="45.21857" lon="5.8929">
        <ele>674.74</ele>
        <time>2019-05-27T12:11:14.000Z</time>
      </trkpt>
      <trkpt lat="45.21867" lon="5.89282">
        <ele>678.99</ele>
        <time>2019-05-27T12:11:34.000Z</time>
      </trkpt>
      <trkpt lat="45.21888" lon="5.89265">
        <ele>678.56</ele>
        <time>2019-05-27T12:11:39.000Z</time>
      </trkpt>
      <trkpt lat="45.21906" lon="5.89247">
        <ele>680.1</ele>
        <time>2019-05-27T12:11:44.000Z</time>
      </trkpt>
      <trkpt lat="45.21924" lon="5.8923">
        <ele>680.85</ele>
        <time>2019-05-27T12:11:49.000Z</time>
      </trkpt>
      <trkpt lat="45.21945" lon="5.89212">
        <ele>681.09</ele>
        <time>2019-05-27T12:11:54.000Z</time>
      </trkpt>
      <trkpt lat="45.21966" lon="5.89204">
        <ele>684.19</ele>
        <time>2019-05-27T12:11:59.000Z</time>
      </trkpt>
      <trkpt lat="45.21987" lon="5.89197">
        <ele>683.48</ele>
        <time>2019-05-27T12:12:04.000Z</time>
      </trkpt>
      <trkpt lat="45.21983" lon="5.89179">
        <ele>684.45</ele>
        <time>2019-05-27T12:12:09.000Z</time>
      </trkpt>
      <trkpt lat="45.2196" lon="5.89181">
        <ele>684.87</ele>
        <time>2019-05-27T12:12:14.000Z</time>
      </trkpt>
      <trkpt lat="45.21941" lon="5.89183">
        <ele>682.93</ele>
        <time>2019-05-27T12:12:19.000Z</time>
      </trkpt>
      <trkpt lat="45.21921" lon="5.89178">
        <ele>685.29</ele>
        <time>2019-05-27T12:12:24.000Z</time>
      </trkpt>
      <trkpt lat="45.21903" lon="5.89181">
        <ele>686.87</ele>
        <time>2019-05-27T12:12:29.000Z</time>
      </trkpt>
      <trkpt lat="45.21883" lon="5.89187">
        <ele>686.36</ele>
        <time>2019-05-27T12:12:34.000Z</time>
      </trkpt>
      <trkpt lat="45.21864" lon="5.89184">
        <ele>688.13</ele>
        <time>2019-05-27T12:12:39.000Z</time>
      </trkpt>
      <trkpt lat="45.21847" lon="5.89177">
        <ele>688.04</ele>
        <time>2019-05-27T12:12:44.000Z</time>
      </trkpt>
      <trkpt lat="45.21827" lon="5.89175">
        <ele>691</ele>
        <time>2019-05-27T12:12:49.000Z</time>
      </trkpt>
      <trkpt lat="45.21807" lon="5.89174">
        <ele>692.35</ele>
        <time>2019-05-27T12:12:54.000Z</time>
      </trkpt>
      <trkpt lat="45.21789" lon="5.89188">
        <ele>694.04</ele>
        <time>2019-05-27T12:12:59.000Z</time>
      </trkpt>
      <trkpt lat="45.21773" lon="5.89201">
        <ele>697.19</ele>
        <time>2019-05-27T12:13:04.000Z</time>
      </trkpt>
      <trkpt lat="45.21756" lon="5.89214">
        <ele>699.08</ele>
        <time>2019-05-27T12:13:09.000Z</time>
      </trkpt>
      <trkpt lat="45.21738" lon="5.89219">
        <ele>699.13</ele>
        <time>2019-05-27T12:13:14.000Z</time>
      </trkpt>
      <trkpt lat="45.2172" lon="5.89227">
        <ele>700.06</ele>
        <time>2019-05-27T12:13:19.000Z</time>
      </trkpt>
      <trkpt lat="45.21699" lon="5.89234">
        <ele>703.29</ele>
        <time>2019-05-27T12:13:24.000Z</time>
      </trkpt>
      <trkpt lat="45.21684" lon="5.89239">
        <ele>708.4</ele>
        <time>2019-05-27T12:13:29.000Z</time>
      </trkpt>
      <trkpt lat="45.2167" lon="5.89251">
        <ele>708.36</ele>
        <time>2019-05-27T12:13:34.000Z</time>
      </trkpt>
      <trkpt lat="45.2165" lon="5.89258">
        <ele>710.35</ele>
        <time>2019-05-27T12:13:39.000Z</time>
      </trkpt>
      <trkpt lat="45.2163" lon="5.89262">
        <ele>713.09</ele>
        <time>2019-05-27T12:13:44.000Z</time>
      </trkpt>
      <trkpt lat="45.21611" lon="5.89266">
        <ele>716.49</ele>
        <time>2019-05-27T12:13:49.000Z</time>
      </trkpt>
      <trkpt lat="45.21592" lon="5.89274">
        <ele>712.27</ele>
        <time>2019-05-27T12:13:54.000Z</time>
      </trkpt>
      <trkpt lat="45.21579" lon="5.8928">
        <ele>716.78</ele>
        <time>2019-05-27T12:13:59.000Z</time>
      </trkpt>
      <trkpt lat="45.21562" lon="5.89285">
        <ele>719.01</ele>
        <time>2019-05-27T12:14:04.000Z</time>
      </trkpt>
      <trkpt lat="45.21539" lon="5.89296">
        <ele>723.23</ele>
        <time>2019-05-27T12:14:09.000Z</time>
      </trkpt>
      <trkpt lat="45.21517" lon="5.89305">
        <ele>725.49</ele>
        <time>2019-05-27T12:14:14.000Z</time>
      </trkpt>
      <trkpt lat="45.21494" lon="5.89311">
        <ele>727.14</ele>
        <time>2019-05-27T12:14:19.000Z</time>
      </trkpt>
      <trkpt lat="45.2147" lon="5.89308">
        <ele>726.77</ele>
        <time>2019-05-27T12:14:24.000Z</time>
      </trkpt>
      <trkpt lat="45.21452" lon="5.89299">
        <ele>732.56</ele>
        <time>2019-05-27T12:14:29.000Z</time>
      </trkpt>
      <trkpt lat="45.2143" lon="5.89298">
        <ele>737.21</ele>
        <time>2019-05-27T12:14:34.000Z</time>
      </trkpt>
      <trkpt lat="45.21418" lon="5.8931">
        <ele>737.79</ele>
        <time>2019-05-27T12:14:39.000Z</time>
      </trkpt>
      <trkpt lat="45.21412" lon="5.89326">
        <ele>739.88</ele>
        <time>2019-05-27T12:14:44.000Z</time>
      </trkpt>
      <trkpt lat="45.21404" lon="5.89341">
        <ele>738.89</ele>
        <time>2019-05-27T12:14:49.000Z</time>
      </trkpt>
      <trkpt lat="45.21391" lon="5.89361">
        <ele>739.16</ele>
        <time>2019-05-27T12:14:54.000Z</time>
      </trkpt>
      <trkpt lat="45.21376" lon="5.8938">
        <ele>740.59</ele>
        <time>2019-05-27T12:14:59.000Z</time>
      </trkpt>
      <trkpt lat="45.21354" lon="5.8939">
        <ele>739.8</ele>
        <time>2019-05-27T12:15:04.000Z</time>
      </trkpt>
      <trkpt lat="45.2133" lon="5.89395">
        <ele>739.33</ele>
        <time>2019-05-27T12:15:09.000Z</time>
      </trkpt>
      <trkpt lat="45.21306" lon="5.89406">
        <ele>740.69</ele>
        <time>2019-05-27T12:15:14.000Z</time>
      </trkpt>
      <trkpt lat="45.21284" lon="5.89417">
        <ele>740.17</ele>
        <time>2019-05-27T12:15:19.000Z</time>
      </trkpt>
      <trkpt lat="45.21261" lon="5.89429">
        <ele>741.93</ele>
        <time>2019-05-27T12:15:24.000Z</time>
      </trkpt>
      <trkpt lat="45.21238" lon="5.89441">
        <ele>743</ele>
        <time>2019-05-27T12:15:29.000Z</time>
      </trkpt>
      <trkpt lat="45.21217" lon="5.89457">
        <ele>744.56</ele>
        <time>2019-05-27T12:15:34.000Z</time>
      </trkpt>
      <trkpt lat="45.212" lon="5.89479">
        <ele>745.8</ele>
        <time>2019-05-27T12:15:39.000Z</time>
      </trkpt>
      <trkpt lat="45.21186" lon="5.89501">
        <ele>747.67</ele>
        <time>2019-05-27T12:15:44.000Z</time>
      </trkpt>
      <trkpt lat="45.21165" lon="5.89529">
        <ele>746.99</ele>
        <time>2019-05-27T12:15:49.000Z</time>
      </trkpt>
      <trkpt lat="45.21149" lon="5.89546">
        <ele>746.99</ele>
        <time>2019-05-27T12:15:54.000Z</time>
      </trkpt>
      <trkpt lat="45.21136" lon="5.89573">
        <ele>747.1</ele>
        <time>2019-05-27T12:15:59.000Z</time>
      </trkpt>
      <trkpt lat="45.21123" lon="5.89595">
        <ele>747.31</ele>
        <time>2019-05-27T12:16:04.000Z</time>
      </trkpt>
      <trkpt lat="45.21101" lon="5.89615">
        <ele>746.16</ele>
        <time>2019-05-27T12:16:09.000Z</time>
      </trkpt>
      <trkpt lat="45.21082" lon="5.89646">
        <ele>745.94</ele>
        <time>2019-05-27T12:16:14.000Z</time>
      </trkpt>
      <trkpt lat="45.21071" lon="5.89674">
        <ele>748.98</ele>
        <time>2019-05-27T12:16:19.000Z</time>
      </trkpt>
      <trkpt lat="45.21066" lon="5.89696">
        <ele>745.61</ele>
        <time>2019-05-27T12:16:24.000Z</time>
      </trkpt>
      <trkpt lat="45.2105" lon="5.89711">
        <ele>748.38</ele>
        <time>2019-05-27T12:16:29.000Z</time>
      </trkpt>
      <trkpt lat="45.21034" lon="5.89726">
        <ele>751.18</ele>
        <time>2019-05-27T12:16:34.000Z</time>
      </trkpt>
      <trkpt lat="45.21013" lon="5.89738">
        <ele>756.77</ele>
        <time>2019-05-27T12:16:39.000Z</time>
      </trkpt>
      <trkpt lat="45.20996" lon="5.89755">
        <ele>758.03</ele>
        <time>2019-05-27T12:16:44.000Z</time>
      </trkpt>
      <trkpt lat="45.20987" lon="5.89768">
        <ele>758.66</ele>
        <time>2019-05-27T12:16:49.000Z</time>
      </trkpt>
      <trkpt lat="45.20973" lon="5.89764">
        <ele>761.05</ele>
        <time>2019-05-27T12:16:54.000Z</time>
      </trkpt>
      <trkpt lat="45.20967" lon="5.89745">
        <ele>760.89</ele>
        <time>2019-05-27T12:16:59.000Z</time>
      </trkpt>
      <trkpt lat="45.20971" lon="5.89728">
        <ele>758.5</ele>
        <time>2019-05-27T12:17:04.000Z</time>
      </trkpt>
      <trkpt lat="45.20981" lon="5.89716">
        <ele>759.77</ele>
        <time>2019-05-27T12:17:09.000Z</time>
      </trkpt>
      <trkpt lat="45.2099" lon="5.89701">
        <ele>760.58</ele>
        <time>2019-05-27T12:17:14.000Z</time>
      </trkpt>
      <trkpt lat="45.21002" lon="5.89684">
        <ele>759.07</ele>
        <time>2019-05-27T12:17:19.000Z</time>
      </trkpt>
      <trkpt lat="45.21018" lon="5.89667">
        <ele>760.8</ele>
        <time>2019-05-27T12:17:24.000Z</time>
      </trkpt>
      <trkpt lat="45.21026" lon="5.89635">
        <ele>767.05</ele>
        <time>2019-05-27T12:17:29.000Z</time>
      </trkpt>
      <trkpt lat="45.21026" lon="5.89598">
        <ele>763.23</ele>
        <time>2019-05-27T12:17:34.000Z</time>
      </trkpt>
      <trkpt lat="45.21024" lon="5.89567">
        <ele>756.23</ele>
        <time>2019-05-27T12:17:39.000Z</time>
      </trkpt>
      <trkpt lat="45.21026" lon="5.89532">
        <ele>754.47</ele>
        <time>2019-05-27T12:17:44.000Z</time>
      </trkpt>
      <trkpt lat="45.21027" lon="5.89503">
        <ele>755.48</ele>
        <time>2019-05-27T12:17:49.000Z</time>
      </trkpt>
      <trkpt lat="45.21035" lon="5.89474">
        <ele>752.52</ele>
        <time>2019-05-27T12:17:54.000Z</time>
      </trkpt>
      <trkpt lat="45.21049" lon="5.89444">
        <ele>752.46</ele>
        <time>2019-05-27T12:17:59.000Z</time>
      </trkpt>
      <trkpt lat="45.21069" lon="5.8941">
        <ele>754.66</ele>
        <time>2019-05-27T12:18:04.000Z</time>
      </trkpt>
      <trkpt lat="45.21086" lon="5.89375">
        <ele>749.46</ele>
        <time>2019-05-27T12:18:09.000Z</time>
      </trkpt>
      <trkpt lat="45.21107" lon="5.89346">
        <ele>750.41</ele>
        <time>2019-05-27T12:18:14.000Z</time>
      </trkpt>
      <trkpt lat="45.21125" lon="5.89313">
        <ele>750.75</ele>
        <time>2019-05-27T12:18:19.000Z</time>
      </trkpt>
      <trkpt lat="45.21144" lon="5.89297">
        <ele>751.48</ele>
        <time>2019-05-27T12:18:24.000Z</time>
      </trkpt>
      <trkpt lat="45.21166" lon="5.89284">
        <ele>752.46</ele>
        <time>2019-05-27T12:18:29.000Z</time>
      </trkpt>
      <trkpt lat="45.21185" lon="5.89274">
        <ele>752.11</ele>
        <time>2019-05-27T12:18:34.000Z</time>
      </trkpt>
      <trkpt lat="45.21199" lon="5.8926">
        <ele>752.5</ele>
        <time>2019-05-27T12:18:39.000Z</time>
      </trkpt>
      <trkpt lat="45.21203" lon="5.89232">
        <ele>753.05</ele>
        <time>2019-05-27T12:18:44.000Z</time>
      </trkpt>
      <trkpt lat="45.21217" lon="5.89203">
        <ele>756.04</ele>
        <time>2019-05-27T12:18:49.000Z</time>
      </trkpt>
      <trkpt lat="45.21234" lon="5.89183">
        <ele>758.51</ele>
        <time>2019-05-27T12:18:54.000Z</time>
      </trkpt>
      <trkpt lat="45.21253" lon="5.89173">
        <ele>761.35</ele>
        <time>2019-05-27T12:18:59.000Z</time>
      </trkpt>
      <trkpt lat="45.21268" lon="5.89169">
        <ele>760.76</ele>
        <time>2019-05-27T12:19:04.000Z</time>
      </trkpt>
      <trkpt lat="45.21282" lon="5.89165">
        <ele>762.01</ele>
        <time>2019-05-27T12:19:09.000Z</time>
      </trkpt>
      <trkpt lat="45.21302" lon="5.89156">
        <ele>765.22</ele>
        <time>2019-05-27T12:19:14.000Z</time>
      </trkpt>
      <trkpt lat="45.21323" lon="5.89149">
        <ele>766.69</ele>
        <time>2019-05-27T12:19:19.000Z</time>
      </trkpt>
      <trkpt lat="45.21345" lon="5.89134">
        <ele>769.84</ele>
        <time>2019-05-27T12:19:24.000Z</time>
      </trkpt>
      <trkpt lat="45.21366" lon="5.89119">
        <ele>769.68</ele>
        <time>2019-05-27T12:19:29.000Z</time>
      </trkpt>
      <trkpt lat="45.21386" lon="5.89108">
        <ele>769.31</ele>
        <time>2019-05-27T12:19:34.000Z</time>
      </trkpt>
      <trkpt lat="45.21402" lon="5.89098">
        <ele>769.19</ele>
        <time>2019-05-27T12:19:39.000Z</time>
      </trkpt>
      <trkpt lat="45.21426" lon="5.89077">
        <ele>772.39</ele>
        <time>2019-05-27T12:19:45.000Z</time>
      </trkpt>
      <trkpt lat="45.21458" lon="5.8904">
        <ele>777.74</ele>
        <time>2019-05-27T12:19:50.000Z</time>
      </trkpt>
      <trkpt lat="45.2149" lon="5.89025">
        <ele>771.97</ele>
        <time>2019-05-27T12:19:55.000Z</time>
      </trkpt>
      <trkpt lat="45.21516" lon="5.89025">
        <ele>782.01</ele>
        <time>2019-05-27T12:20:00.000Z</time>
      </trkpt>
      <trkpt lat="45.21533" lon="5.89021">
        <ele>780.74</ele>
        <time>2019-05-27T12:20:05.000Z</time>
      </trkpt>
      <trkpt lat="45.21553" lon="5.89014">
        <ele>783.65</ele>
        <time>2019-05-27T12:20:10.000Z</time>
      </trkpt>
      <trkpt lat="45.21573" lon="5.89">
        <ele>788.13</ele>
        <time>2019-05-27T12:20:15.000Z</time>
      </trkpt>
      <trkpt lat="45.21598" lon="5.88988">
        <ele>791.4</ele>
        <time>2019-05-27T12:20:20.000Z</time>
      </trkpt>
      <trkpt lat="45.2162" lon="5.88972">
        <ele>795.93</ele>
        <time>2019-05-27T12:20:25.000Z</time>
      </trkpt>
      <trkpt lat="45.21641" lon="5.88955">
        <ele>797.98</ele>
        <time>2019-05-27T12:20:30.000Z</time>
      </trkpt>
      <trkpt lat="45.21662" lon="5.8894">
        <ele>796.81</ele>
        <time>2019-05-27T12:20:35.000Z</time>
      </trkpt>
      <trkpt lat="45.21683" lon="5.88924">
        <ele>798.56</ele>
        <time>2019-05-27T12:20:40.000Z</time>
      </trkpt>
      <trkpt lat="45.21701" lon="5.88909">
        <ele>796.74</ele>
        <time>2019-05-27T12:20:45.000Z</time>
      </trkpt>
      <trkpt lat="45.21705" lon="5.8888">
        <ele>796.8</ele>
        <time>2019-05-27T12:20:50.000Z</time>
      </trkpt>
      <trkpt lat="45.21693" lon="5.8886">
        <ele>794.15</ele>
        <time>2019-05-27T12:20:55.000Z</time>
      </trkpt>
      <trkpt lat="45.21698" lon="5.88849">
        <ele>797.28</ele>
        <time>2019-05-27T12:21:12.000Z</time>
      </trkpt>
      <trkpt lat="45.21688" lon="5.88855">
        <ele>794.77</ele>
        <time>2019-05-27T12:25:54.000Z</time>
      </trkpt>
      <trkpt lat="45.21676" lon="5.88849">
        <ele>792.77</ele>
        <time>2019-05-27T12:25:59.000Z</time>
      </trkpt>
      <trkpt lat="45.21649" lon="5.88833">
        <ele>789.9</ele>
        <time>2019-05-27T12:26:04.000Z</time>
      </trkpt>
      <trkpt lat="45.21611" lon="5.88815">
        <ele>787.8</ele>
        <time>2019-05-27T12:26:09.000Z</time>
      </trkpt>
      <trkpt lat="45.21569" lon="5.88771">
        <ele>788.4</ele>
        <time>2019-05-27T12:26:14.000Z</time>
      </trkpt>
      <trkpt lat="45.21525" lon="5.88711">
        <ele>788.98</ele>
        <time>2019-05-27T12:26:19.000Z</time>
      </trkpt>
      <trkpt lat="45.21492" lon="5.88639">
        <ele>787.77</ele>
        <time>2019-05-27T12:26:24.000Z</time>
      </trkpt>
      <trkpt lat="45.2146" lon="5.88555">
        <ele>784.37</ele>
        <time>2019-05-27T12:26:29.000Z</time>
      </trkpt>
      <trkpt lat="45.21428" lon="5.88462">
        <ele>777.66</ele>
        <time>2019-05-27T12:26:34.000Z</time>
      </trkpt>
      <trkpt lat="45.21427" lon="5.88368">
        <ele>768.52</ele>
        <time>2019-05-27T12:26:39.000Z</time>
      </trkpt>
      <trkpt lat="45.21386" lon="5.88318">
        <ele>759.16</ele>
        <time>2019-05-27T12:26:44.000Z</time>
      </trkpt>
      <trkpt lat="45.2133" lon="5.88342">
        <ele>757.9</ele>
        <time>2019-05-27T12:26:49.000Z</time>
      </trkpt>
      <trkpt lat="45.21276" lon="5.88357">
        <ele>756.34</ele>
        <time>2019-05-27T12:26:54.000Z</time>
      </trkpt>
      <trkpt lat="45.21227" lon="5.88357">
        <ele>755.22</ele>
        <time>2019-05-27T12:26:59.000Z</time>
      </trkpt>
      <trkpt lat="45.21183" lon="5.88352">
        <ele>751.62</ele>
        <time>2019-05-27T12:27:04.000Z</time>
      </trkpt>
      <trkpt lat="45.21141" lon="5.88343">
        <ele>748.62</ele>
        <time>2019-05-27T12:27:09.000Z</time>
      </trkpt>
      <trkpt lat="45.21101" lon="5.88332">
        <ele>745.97</ele>
        <time>2019-05-27T12:27:14.000Z</time>
      </trkpt>
      <trkpt lat="45.21066" lon="5.88308">
        <ele>746.77</ele>
        <time>2019-05-27T12:27:19.000Z</time>
      </trkpt>
      <trkpt lat="45.21035" lon="5.88287">
        <ele>746.57</ele>
        <time>2019-05-27T12:27:24.000Z</time>
      </trkpt>
      <trkpt lat="45.21002" lon="5.88281">
        <ele>747.81</ele>
        <time>2019-05-27T12:27:29.000Z</time>
      </trkpt>
      <trkpt lat="45.20972" lon="5.88275">
        <ele>750.59</ele>
        <time>2019-05-27T12:27:34.000Z</time>
      </trkpt>
      <trkpt lat="45.20945" lon="5.88264">
        <ele>746.93</ele>
        <time>2019-05-27T12:27:39.000Z</time>
      </trkpt>
      <trkpt lat="45.20913" lon="5.88253">
        <ele>746.24</ele>
        <time>2019-05-27T12:27:44.000Z</time>
      </trkpt>
      <trkpt lat="45.2088" lon="5.88256">
        <ele>750.35</ele>
        <time>2019-05-27T12:27:49.000Z</time>
      </trkpt>
      <trkpt lat="45.20855" lon="5.88269">
        <ele>747.09</ele>
        <time>2019-05-27T12:27:54.000Z</time>
      </trkpt>
      <trkpt lat="45.20848" lon="5.88287">
        <ele>744.52</ele>
        <time>2019-05-27T12:27:59.000Z</time>
      </trkpt>
      <trkpt lat="45.2084" lon="5.88295">
        <ele>746.94</ele>
        <time>2019-05-27T12:28:04.000Z</time>
      </trkpt>
      <trkpt lat="45.20818" lon="5.88311">
        <ele>749.23</ele>
        <time>2019-05-27T12:28:09.000Z</time>
      </trkpt>
      <trkpt lat="45.20784" lon="5.88323">
        <ele>750.48</ele>
        <time>2019-05-27T12:28:14.000Z</time>
      </trkpt>
      <trkpt lat="45.2074" lon="5.88338">
        <ele>746.18</ele>
        <time>2019-05-27T12:28:19.000Z</time>
      </trkpt>
      <trkpt lat="45.20691" lon="5.88331">
        <ele>741.59</ele>
        <time>2019-05-27T12:28:24.000Z</time>
      </trkpt>
      <trkpt lat="45.20654" lon="5.8828">
        <ele>737.22</ele>
        <time>2019-05-27T12:28:29.000Z</time>
      </trkpt>
      <trkpt lat="45.20612" lon="5.88232">
        <ele>733.45</ele>
        <time>2019-05-27T12:28:34.000Z</time>
      </trkpt>
      <trkpt lat="45.20594" lon="5.8818">
        <ele>730.07</ele>
        <time>2019-05-27T12:28:39.000Z</time>
      </trkpt>
      <trkpt lat="45.2057" lon="5.88136">
        <ele>728.24</ele>
        <time>2019-05-27T12:28:44.000Z</time>
      </trkpt>
      <trkpt lat="45.2054" lon="5.88125">
        <ele>728.17</ele>
        <time>2019-05-27T12:28:49.000Z</time>
      </trkpt>
      <trkpt lat="45.20509" lon="5.88137">
        <ele>729.5</ele>
        <time>2019-05-27T12:28:54.000Z</time>
      </trkpt>
      <trkpt lat="45.20481" lon="5.88142">
        <ele>730.84</ele>
        <time>2019-05-27T12:28:59.000Z</time>
      </trkpt>
      <trkpt lat="45.20451" lon="5.88139">
        <ele>727.26</ele>
        <time>2019-05-27T12:29:04.000Z</time>
      </trkpt>
      <trkpt lat="45.20422" lon="5.8813">
        <ele>730.14</ele>
        <time>2019-05-27T12:29:09.000Z</time>
      </trkpt>
      <trkpt lat="45.20396" lon="5.88128">
        <ele>726.52</ele>
        <time>2019-05-27T12:29:14.000Z</time>
      </trkpt>
      <trkpt lat="45.20367" lon="5.88137">
        <ele>725.63</ele>
        <time>2019-05-27T12:29:19.000Z</time>
      </trkpt>
      <trkpt lat="45.20343" lon="5.88155">
        <ele>720.13</ele>
        <time>2019-05-27T12:29:24.000Z</time>
      </trkpt>
      <trkpt lat="45.20321" lon="5.8818">
        <ele>719.7</ele>
        <time>2019-05-27T12:29:29.000Z</time>
      </trkpt>
      <trkpt lat="45.20298" lon="5.88202">
        <ele>720.27</ele>
        <time>2019-05-27T12:29:34.000Z</time>
      </trkpt>
      <trkpt lat="45.20273" lon="5.88217">
        <ele>723.3</ele>
        <time>2019-05-27T12:29:39.000Z</time>
      </trkpt>
      <trkpt lat="45.2025" lon="5.88219">
        <ele>723.72</ele>
        <time>2019-05-27T12:29:44.000Z</time>
      </trkpt>
      <trkpt lat="45.20228" lon="5.88214">
        <ele>727.49</ele>
        <time>2019-05-27T12:29:49.000Z</time>
      </trkpt>
      <trkpt lat="45.20211" lon="5.88208">
        <ele>732.64</ele>
        <time>2019-05-27T12:29:54.000Z</time>
      </trkpt>
      <trkpt lat="45.20191" lon="5.88194">
        <ele>733.27</ele>
        <time>2019-05-27T12:29:59.000Z</time>
      </trkpt>
      <trkpt lat="45.20176" lon="5.88182">
        <ele>736.85</ele>
        <time>2019-05-27T12:30:04.000Z</time>
      </trkpt>
      <trkpt lat="45.20165" lon="5.8815">
        <ele>740.31</ele>
        <time>2019-05-27T12:30:09.000Z</time>
      </trkpt>
      <trkpt lat="45.20156" lon="5.88123">
        <ele>742.3</ele>
        <time>2019-05-27T12:30:14.000Z</time>
      </trkpt>
      <trkpt lat="45.20155" lon="5.88093">
        <ele>746.93</ele>
        <time>2019-05-27T12:30:19.000Z</time>
      </trkpt>
      <trkpt lat="45.20153" lon="5.88074">
        <ele>748.87</ele>
        <time>2019-05-27T12:30:24.000Z</time>
      </trkpt>
      <trkpt lat="45.20154" lon="5.88056">
        <ele>750.01</ele>
        <time>2019-05-27T12:30:29.000Z</time>
      </trkpt>
      <trkpt lat="45.20155" lon="5.88022">
        <ele>745.76</ele>
        <time>2019-05-27T12:30:34.000Z</time>
      </trkpt>
      <trkpt lat="45.20149" lon="5.87973">
        <ele>748.75</ele>
        <time>2019-05-27T12:30:39.000Z</time>
      </trkpt>
      <trkpt lat="45.20138" lon="5.87943">
        <ele>746.75</ele>
        <time>2019-05-27T12:30:44.000Z</time>
      </trkpt>
      <trkpt lat="45.20134" lon="5.87908">
        <ele>749.49</ele>
        <time>2019-05-27T12:30:49.000Z</time>
      </trkpt>
      <trkpt lat="45.20129" lon="5.87883">
        <ele>754.02</ele>
        <time>2019-05-27T12:30:54.000Z</time>
      </trkpt>
      <trkpt lat="45.20124" lon="5.87861">
        <ele>758.69</ele>
        <time>2019-05-27T12:30:59.000Z</time>
      </trkpt>
      <trkpt lat="45.2012" lon="5.87837">
        <ele>762.99</ele>
        <time>2019-05-27T12:31:04.000Z</time>
      </trkpt>
      <trkpt lat="45.20119" lon="5.87814">
        <ele>768</ele>
        <time>2019-05-27T12:31:09.000Z</time>
      </trkpt>
      <trkpt lat="45.20119" lon="5.87788">
        <ele>769.32</ele>
        <time>2019-05-27T12:31:14.000Z</time>
      </trkpt>
      <trkpt lat="45.2012" lon="5.87761">
        <ele>771.29</ele>
        <time>2019-05-27T12:31:19.000Z</time>
      </trkpt>
      <trkpt lat="45.20127" lon="5.87732">
        <ele>767.38</ele>
        <time>2019-05-27T12:31:24.000Z</time>
      </trkpt>
      <trkpt lat="45.20138" lon="5.87697">
        <ele>763.51</ele>
        <time>2019-05-27T12:31:29.000Z</time>
      </trkpt>
      <trkpt lat="45.20141" lon="5.87663">
        <ele>761.65</ele>
        <time>2019-05-27T12:31:34.000Z</time>
      </trkpt>
      <trkpt lat="45.20136" lon="5.87628">
        <ele>760.28</ele>
        <time>2019-05-27T12:31:39.000Z</time>
      </trkpt>
      <trkpt lat="45.20122" lon="5.87584">
        <ele>761.27</ele>
        <time>2019-05-27T12:31:44.000Z</time>
      </trkpt>
      <trkpt lat="45.2011" lon="5.87545">
        <ele>765.25</ele>
        <time>2019-05-27T12:31:49.000Z</time>
      </trkpt>
      <trkpt lat="45.20106" lon="5.87506">
        <ele>767.52</ele>
        <time>2019-05-27T12:31:54.000Z</time>
      </trkpt>
      <trkpt lat="45.20111" lon="5.87477">
        <ele>770.35</ele>
        <time>2019-05-27T12:31:59.000Z</time>
      </trkpt>
      <trkpt lat="45.20119" lon="5.87451">
        <ele>770.82</ele>
        <time>2019-05-27T12:32:04.000Z</time>
      </trkpt>
      <trkpt lat="45.20132" lon="5.87427">
        <ele>771.34</ele>
        <time>2019-05-27T12:32:09.000Z</time>
      </trkpt>
      <trkpt lat="45.20145" lon="5.87403">
        <ele>775.21</ele>
        <time>2019-05-27T12:32:14.000Z</time>
      </trkpt>
      <trkpt lat="45.20151" lon="5.87376">
        <ele>779.57</ele>
        <time>2019-05-27T12:32:19.000Z</time>
      </trkpt>
      <trkpt lat="45.20144" lon="5.87344">
        <ele>783.02</ele>
        <time>2019-05-27T12:32:24.000Z</time>
      </trkpt>
      <trkpt lat="45.20133" lon="5.87315">
        <ele>783.96</ele>
        <time>2019-05-27T12:32:29.000Z</time>
      </trkpt>
      <trkpt lat="45.20132" lon="5.87287">
        <ele>788.53</ele>
        <time>2019-05-27T12:32:34.000Z</time>
      </trkpt>
      <trkpt lat="45.20119" lon="5.87259">
        <ele>787.07</ele>
        <time>2019-05-27T12:32:39.000Z</time>
      </trkpt>
      <trkpt lat="45.20111" lon="5.87231">
        <ele>787.05</ele>
        <time>2019-05-27T12:32:44.000Z</time>
      </trkpt>
      <trkpt lat="45.20097" lon="5.87208">
        <ele>792.74</ele>
        <time>2019-05-27T12:32:49.000Z</time>
      </trkpt>
      <trkpt lat="45.20087" lon="5.87188">
        <ele>798.46</ele>
        <time>2019-05-27T12:32:54.000Z</time>
      </trkpt>
      <trkpt lat="45.20078" lon="5.87163">
        <ele>802.51</ele>
        <time>2019-05-27T12:32:59.000Z</time>
      </trkpt>
      <trkpt lat="45.20069" lon="5.87135">
        <ele>808.45</ele>
        <time>2019-05-27T12:33:04.000Z</time>
      </trkpt>
      <trkpt lat="45.20065" lon="5.87104">
        <ele>813.73</ele>
        <time>2019-05-27T12:33:09.000Z</time>
      </trkpt>
      <trkpt lat="45.20064" lon="5.87076">
        <ele>814.75</ele>
        <time>2019-05-27T12:33:14.000Z</time>
      </trkpt>
      <trkpt lat="45.20065" lon="5.87057">
        <ele>817.12</ele>
        <time>2019-05-27T12:33:19.000Z</time>
      </trkpt>
      <trkpt lat="45.20066" lon="5.87034">
        <ele>820.97</ele>
        <time>2019-05-27T12:33:24.000Z</time>
      </trkpt>
      <trkpt lat="45.20069" lon="5.87006">
        <ele>823.17</ele>
        <time>2019-05-27T12:33:29.000Z</time>
      </trkpt>
      <trkpt lat="45.20073" lon="5.86977">
        <ele>826.71</ele>
        <time>2019-05-27T12:33:34.000Z</time>
      </trkpt>
      <trkpt lat="45.20076" lon="5.86947">
        <ele>827.07</ele>
        <time>2019-05-27T12:33:39.000Z</time>
      </trkpt>
      <trkpt lat="45.20081" lon="5.86912">
        <ele>821.64</ele>
        <time>2019-05-27T12:33:44.000Z</time>
      </trkpt>
      <trkpt lat="45.20072" lon="5.86875">
        <ele>815.69</ele>
        <time>2019-05-27T12:33:49.000Z</time>
      </trkpt>
      <trkpt lat="45.20058" lon="5.86836">
        <ele>813.11</ele>
        <time>2019-05-27T12:33:54.000Z</time>
      </trkpt>
      <trkpt lat="45.20044" lon="5.86806">
        <ele>807.72</ele>
        <time>2019-05-27T12:33:59.000Z</time>
      </trkpt>
      <trkpt lat="45.20028" lon="5.86773">
        <ele>806.77</ele>
        <time>2019-05-27T12:34:04.000Z</time>
      </trkpt>
      <trkpt lat="45.20015" lon="5.86742">
        <ele>806.27</ele>
        <time>2019-05-27T12:34:09.000Z</time>
      </trkpt>
      <trkpt lat="45.19999" lon="5.8672">
        <ele>809.4</ele>
        <time>2019-05-27T12:34:14.000Z</time>
      </trkpt>
      <trkpt lat="45.19977" lon="5.86713">
        <ele>809.31</ele>
        <time>2019-05-27T12:34:19.000Z</time>
      </trkpt>
      <trkpt lat="45.19954" lon="5.86713">
        <ele>813.96</ele>
        <time>2019-05-27T12:34:24.000Z</time>
      </trkpt>
      <trkpt lat="45.19927" lon="5.86721">
        <ele>818.32</ele>
        <time>2019-05-27T12:34:29.000Z</time>
      </trkpt>
      <trkpt lat="45.19906" lon="5.86727">
        <ele>823.77</ele>
        <time>2019-05-27T12:34:34.000Z</time>
      </trkpt>
      <trkpt lat="45.19884" lon="5.86728">
        <ele>824.52</ele>
        <time>2019-05-27T12:34:39.000Z</time>
      </trkpt>
      <trkpt lat="45.19864" lon="5.86727">
        <ele>825.65</ele>
        <time>2019-05-27T12:34:44.000Z</time>
      </trkpt>
      <trkpt lat="45.19843" lon="5.8673">
        <ele>830.6</ele>
        <time>2019-05-27T12:34:49.000Z</time>
      </trkpt>
      <trkpt lat="45.1982" lon="5.86725">
        <ele>836.06</ele>
        <time>2019-05-27T12:34:54.000Z</time>
      </trkpt>
      <trkpt lat="45.198" lon="5.86724">
        <ele>840.39</ele>
        <time>2019-05-27T12:34:59.000Z</time>
      </trkpt>
      <trkpt lat="45.19781" lon="5.86718">
        <ele>840.44</ele>
        <time>2019-05-27T12:35:04.000Z</time>
      </trkpt>
      <trkpt lat="45.19763" lon="5.86715">
        <ele>841.27</ele>
        <time>2019-05-27T12:35:09.000Z</time>
      </trkpt>
      <trkpt lat="45.19743" lon="5.86715">
        <ele>844.09</ele>
        <time>2019-05-27T12:35:14.000Z</time>
      </trkpt>
      <trkpt lat="45.19725" lon="5.86726">
        <ele>845.78</ele>
        <time>2019-05-27T12:35:19.000Z</time>
      </trkpt>
      <trkpt lat="45.19715" lon="5.8675">
        <ele>849.18</ele>
        <time>2019-05-27T12:35:24.000Z</time>
      </trkpt>
      <trkpt lat="45.19719" lon="5.86785">
        <ele>849.19</ele>
        <time>2019-05-27T12:35:29.000Z</time>
      </trkpt>
      <trkpt lat="45.19719" lon="5.86812">
        <ele>854.38</ele>
        <time>2019-05-27T12:35:34.000Z</time>
      </trkpt>
      <trkpt lat="45.19711" lon="5.86838">
        <ele>856.65</ele>
        <time>2019-05-27T12:35:39.000Z</time>
      </trkpt>
      <trkpt lat="45.19693" lon="5.86851">
        <ele>856.71</ele>
        <time>2019-05-27T12:35:44.000Z</time>
      </trkpt>
      <trkpt lat="45.19671" lon="5.8685">
        <ele>860.97</ele>
        <time>2019-05-27T12:35:49.000Z</time>
      </trkpt>
      <trkpt lat="45.19651" lon="5.86852">
        <ele>862.44</ele>
        <time>2019-05-27T12:35:54.000Z</time>
      </trkpt>
      <trkpt lat="45.19628" lon="5.86853">
        <ele>862.49</ele>
        <time>2019-05-27T12:35:59.000Z</time>
      </trkpt>
      <trkpt lat="45.19603" lon="5.86853">
        <ele>863.63</ele>
        <time>2019-05-27T12:36:04.000Z</time>
      </trkpt>
      <trkpt lat="45.19579" lon="5.86857">
        <ele>864.44</ele>
        <time>2019-05-27T12:36:09.000Z</time>
      </trkpt>
      <trkpt lat="45.19555" lon="5.86862">
        <ele>865.35</ele>
        <time>2019-05-27T12:36:14.000Z</time>
      </trkpt>
      <trkpt lat="45.19537" lon="5.86882">
        <ele>866.98</ele>
        <time>2019-05-27T12:36:19.000Z</time>
      </trkpt>
      <trkpt lat="45.19526" lon="5.86909">
        <ele>869.94</ele>
        <time>2019-05-27T12:36:24.000Z</time>
      </trkpt>
      <trkpt lat="45.19532" lon="5.86943">
        <ele>876.11</ele>
        <time>2019-05-27T12:36:29.000Z</time>
      </trkpt>
      <trkpt lat="45.19534" lon="5.86975">
        <ele>873.99</ele>
        <time>2019-05-27T12:36:34.000Z</time>
      </trkpt>
      <trkpt lat="45.19536" lon="5.87003">
        <ele>875.33</ele>
        <time>2019-05-27T12:36:39.000Z</time>
      </trkpt>
      <trkpt lat="45.19543" lon="5.8703">
        <ele>878.81</ele>
        <time>2019-05-27T12:36:44.000Z</time>
      </trkpt>
      <trkpt lat="45.19559" lon="5.87057">
        <ele>879.72</ele>
        <time>2019-05-27T12:36:49.000Z</time>
      </trkpt>
      <trkpt lat="45.19575" lon="5.87078">
        <ele>873.63</ele>
        <time>2019-05-27T12:36:54.000Z</time>
      </trkpt>
      <trkpt lat="45.19596" lon="5.87104">
        <ele>872.22</ele>
        <time>2019-05-27T12:36:59.000Z</time>
      </trkpt>
      <trkpt lat="45.19617" lon="5.87132">
        <ele>871.42</ele>
        <time>2019-05-27T12:37:04.000Z</time>
      </trkpt>
      <trkpt lat="45.19639" lon="5.87163">
        <ele>870.81</ele>
        <time>2019-05-27T12:37:09.000Z</time>
      </trkpt>
      <trkpt lat="45.19658" lon="5.87191">
        <ele>868.87</ele>
        <time>2019-05-27T12:37:14.000Z</time>
      </trkpt>
      <trkpt lat="45.19674" lon="5.87228">
        <ele>870.33</ele>
        <time>2019-05-27T12:37:19.000Z</time>
      </trkpt>
      <trkpt lat="45.19679" lon="5.87275">
        <ele>872.37</ele>
        <time>2019-05-27T12:37:24.000Z</time>
      </trkpt>
      <trkpt lat="45.1968" lon="5.87325">
        <ele>876.99</ele>
        <time>2019-05-27T12:37:29.000Z</time>
      </trkpt>
      <trkpt lat="45.19682" lon="5.87369">
        <ele>877.36</ele>
        <time>2019-05-27T12:37:34.000Z</time>
      </trkpt>
      <trkpt lat="45.19684" lon="5.87408">
        <ele>876.65</ele>
        <time>2019-05-27T12:37:39.000Z</time>
      </trkpt>
      <trkpt lat="45.19685" lon="5.8744">
        <ele>872.68</ele>
        <time>2019-05-27T12:37:44.000Z</time>
      </trkpt>
      <trkpt lat="45.19682" lon="5.8747">
        <ele>869.21</ele>
        <time>2019-05-27T12:37:49.000Z</time>
      </trkpt>
      <trkpt lat="45.19672" lon="5.875">
        <ele>869.84</ele>
        <time>2019-05-27T12:37:54.000Z</time>
      </trkpt>
      <trkpt lat="45.19657" lon="5.87528">
        <ele>869.51</ele>
        <time>2019-05-27T12:37:59.000Z</time>
      </trkpt>
      <trkpt lat="45.19638" lon="5.87551">
        <ele>869.9</ele>
        <time>2019-05-27T12:38:04.000Z</time>
      </trkpt>
      <trkpt lat="45.19618" lon="5.87574">
        <ele>875.16</ele>
        <time>2019-05-27T12:38:09.000Z</time>
      </trkpt>
      <trkpt lat="45.19598" lon="5.87594">
        <ele>876.05</ele>
        <time>2019-05-27T12:38:14.000Z</time>
      </trkpt>
      <trkpt lat="45.19582" lon="5.87617">
        <ele>877.36</ele>
        <time>2019-05-27T12:38:19.000Z</time>
      </trkpt>
      <trkpt lat="45.19565" lon="5.87638">
        <ele>877.35</ele>
        <time>2019-05-27T12:38:24.000Z</time>
      </trkpt>
      <trkpt lat="45.19545" lon="5.87652">
        <ele>879.04</ele>
        <time>2019-05-27T12:38:29.000Z</time>
      </trkpt>
      <trkpt lat="45.1952" lon="5.8766">
        <ele>880.52</ele>
        <time>2019-05-27T12:38:34.000Z</time>
      </trkpt>
      <trkpt lat="45.19494" lon="5.87667">
        <ele>880.74</ele>
        <time>2019-05-27T12:38:39.000Z</time>
      </trkpt>
      <trkpt lat="45.19468" lon="5.87665">
        <ele>887.45</ele>
        <time>2019-05-27T12:38:44.000Z</time>
      </trkpt>
      <trkpt lat="45.19441" lon="5.87668">
        <ele>887.23</ele>
        <time>2019-05-27T12:38:49.000Z</time>
      </trkpt>
      <trkpt lat="45.1942" lon="5.8766">
        <ele>887.38</ele>
        <time>2019-05-27T12:38:54.000Z</time>
      </trkpt>
      <trkpt lat="45.19396" lon="5.87663">
        <ele>891.01</ele>
        <time>2019-05-27T12:38:59.000Z</time>
      </trkpt>
      <trkpt lat="45.19371" lon="5.87678">
        <ele>891.86</ele>
        <time>2019-05-27T12:39:04.000Z</time>
      </trkpt>
      <trkpt lat="45.19357" lon="5.87703">
        <ele>892.64</ele>
        <time>2019-05-27T12:39:09.000Z</time>
      </trkpt>
      <trkpt lat="45.1935" lon="5.87737">
        <ele>893.28</ele>
        <time>2019-05-27T12:39:14.000Z</time>
      </trkpt>
      <trkpt lat="45.19349" lon="5.87778">
        <ele>891.28</ele>
        <time>2019-05-27T12:39:19.000Z</time>
      </trkpt>
      <trkpt lat="45.19349" lon="5.87821">
        <ele>890.85</ele>
        <time>2019-05-27T12:39:24.000Z</time>
      </trkpt>
      <trkpt lat="45.19346" lon="5.8787">
        <ele>888.27</ele>
        <time>2019-05-27T12:39:29.000Z</time>
      </trkpt>
      <trkpt lat="45.19357" lon="5.8792">
        <ele>887.33</ele>
        <time>2019-05-27T12:39:34.000Z</time>
      </trkpt>
      <trkpt lat="45.19382" lon="5.87963">
        <ele>886.6</ele>
        <time>2019-05-27T12:39:39.000Z</time>
      </trkpt>
      <trkpt lat="45.19413" lon="5.88006">
        <ele>885.26</ele>
        <time>2019-05-27T12:39:44.000Z</time>
      </trkpt>
      <trkpt lat="45.19433" lon="5.88064">
        <ele>880.7</ele>
        <time>2019-05-27T12:39:49.000Z</time>
      </trkpt>
      <trkpt lat="45.19427" lon="5.88133">
        <ele>881.07</ele>
        <time>2019-05-27T12:39:54.000Z</time>
      </trkpt>
      <trkpt lat="45.19409" lon="5.88196">
        <ele>879.33</ele>
        <time>2019-05-27T12:39:59.000Z</time>
      </trkpt>
      <trkpt lat="45.19394" lon="5.8824">
        <ele>880.98</ele>
        <time>2019-05-27T12:40:04.000Z</time>
      </trkpt>
      <trkpt lat="45.19391" lon="5.88277">
        <ele>882.21</ele>
        <time>2019-05-27T12:40:09.000Z</time>
      </trkpt>
      <trkpt lat="45.19378" lon="5.88324">
        <ele>881.87</ele>
        <time>2019-05-27T12:40:14.000Z</time>
      </trkpt>
      <trkpt lat="45.19366" lon="5.8839">
        <ele>880.1</ele>
        <time>2019-05-27T12:40:19.000Z</time>
      </trkpt>
      <trkpt lat="45.19321" lon="5.88431">
        <ele>872.61</ele>
        <time>2019-05-27T12:40:24.000Z</time>
      </trkpt>
      <trkpt lat="45.19256" lon="5.88451">
        <ele>866.31</ele>
        <time>2019-05-27T12:40:29.000Z</time>
      </trkpt>
      <trkpt lat="45.1919" lon="5.88461">
        <ele>857.93</ele>
        <time>2019-05-27T12:40:34.000Z</time>
      </trkpt>
      <trkpt lat="45.19118" lon="5.88453">
        <ele>848.61</ele>
        <time>2019-05-27T12:40:39.000Z</time>
      </trkpt>
      <trkpt lat="45.19047" lon="5.88442">
        <ele>843.98</ele>
        <time>2019-05-27T12:40:44.000Z</time>
      </trkpt>
      <trkpt lat="45.18976" lon="5.88451">
        <ele>843.78</ele>
        <time>2019-05-27T12:40:49.000Z</time>
      </trkpt>
      <trkpt lat="45.18913" lon="5.88467">
        <ele>840.25</ele>
        <time>2019-05-27T12:40:54.000Z</time>
      </trkpt>
      <trkpt lat="45.18854" lon="5.88473">
        <ele>841.03</ele>
        <time>2019-05-27T12:40:59.000Z</time>
      </trkpt>
      <trkpt lat="45.18808" lon="5.88435">
        <ele>847.76</ele>
        <time>2019-05-27T12:41:04.000Z</time>
      </trkpt>
      <trkpt lat="45.18779" lon="5.88386">
        <ele>845.3</ele>
        <time>2019-05-27T12:41:09.000Z</time>
      </trkpt>
      <trkpt lat="45.18755" lon="5.88336">
        <ele>836.74</ele>
        <time>2019-05-27T12:41:14.000Z</time>
      </trkpt>
      <trkpt lat="45.18732" lon="5.88291">
        <ele>833.62</ele>
        <time>2019-05-27T12:41:19.000Z</time>
      </trkpt>
      <trkpt lat="45.18715" lon="5.88236">
        <ele>835.23</ele>
        <time>2019-05-27T12:41:24.000Z</time>
      </trkpt>
      <trkpt lat="45.18713" lon="5.88191">
        <ele>826.01</ele>
        <time>2019-05-27T12:41:29.000Z</time>
      </trkpt>
      <trkpt lat="45.18716" lon="5.88145">
        <ele>822.33</ele>
        <time>2019-05-27T12:41:34.000Z</time>
      </trkpt>
      <trkpt lat="45.18721" lon="5.88082">
        <ele>815.7</ele>
        <time>2019-05-27T12:41:39.000Z</time>
      </trkpt>
      <trkpt lat="45.18703" lon="5.88005">
        <ele>817.21</ele>
        <time>2019-05-27T12:41:44.000Z</time>
      </trkpt>
      <trkpt lat="45.18672" lon="5.87924">
        <ele>807.05</ele>
        <time>2019-05-27T12:41:49.000Z</time>
      </trkpt>
      <trkpt lat="45.18619" lon="5.87862">
        <ele>801.43</ele>
        <time>2019-05-27T12:41:54.000Z</time>
      </trkpt>
      <trkpt lat="45.18545" lon="5.87822">
        <ele>789.41</ele>
        <time>2019-05-27T12:41:59.000Z</time>
      </trkpt>
      <trkpt lat="45.18469" lon="5.8779">
        <ele>783.35</ele>
        <time>2019-05-27T12:42:04.000Z</time>
      </trkpt>
      <trkpt lat="45.18393" lon="5.8783">
        <ele>779.15</ele>
        <time>2019-05-27T12:42:09.000Z</time>
      </trkpt>
      <trkpt lat="45.18325" lon="5.87904">
        <ele>772.26</ele>
        <time>2019-05-27T12:42:14.000Z</time>
      </trkpt>
      <trkpt lat="45.18268" lon="5.87983">
        <ele>765.32</ele>
        <time>2019-05-27T12:42:19.000Z</time>
      </trkpt>
      <trkpt lat="45.18243" lon="5.88012">
        <ele>763.5</ele>
        <time>2019-05-27T12:42:24.000Z</time>
      </trkpt>
      <trkpt lat="45.18248" lon="5.8799">
        <ele>760.63</ele>
        <time>2019-05-27T12:42:29.000Z</time>
      </trkpt>
      <trkpt lat="45.18256" lon="5.87932">
        <ele>755.62</ele>
        <time>2019-05-27T12:42:34.000Z</time>
      </trkpt>
      <trkpt lat="45.18262" lon="5.87859">
        <ele>748.54</ele>
        <time>2019-05-27T12:42:39.000Z</time>
      </trkpt>
      <trkpt lat="45.18279" lon="5.87781">
        <ele>746.76</ele>
        <time>2019-05-27T12:42:44.000Z</time>
      </trkpt>
      <trkpt lat="45.18295" lon="5.87725">
        <ele>730.76</ele>
        <time>2019-05-27T12:42:49.000Z</time>
      </trkpt>
      <trkpt lat="45.18298" lon="5.87704">
        <ele>730.72</ele>
        <time>2019-05-27T12:42:54.000Z</time>
      </trkpt>
      <trkpt lat="45.18299" lon="5.87685">
        <ele>732.45</ele>
        <time>2019-05-27T12:43:07.000Z</time>
      </trkpt>
      <trkpt lat="45.183" lon="5.87643">
        <ele>723.23</ele>
        <time>2019-05-27T12:43:12.000Z</time>
      </trkpt>
      <trkpt lat="45.18308" lon="5.87602">
        <ele>716.27</ele>
        <time>2019-05-27T12:43:17.000Z</time>
      </trkpt>
      <trkpt lat="45.18326" lon="5.87559">
        <ele>711.56</ele>
        <time>2019-05-27T12:43:22.000Z</time>
      </trkpt>
      <trkpt lat="45.18339" lon="5.87515">
        <ele>704.99</ele>
        <time>2019-05-27T12:43:27.000Z</time>
      </trkpt>
      <trkpt lat="45.18355" lon="5.87477">
        <ele>704.09</ele>
        <time>2019-05-27T12:43:32.000Z</time>
      </trkpt>
      <trkpt lat="45.18362" lon="5.87445">
        <ele>700.3</ele>
        <time>2019-05-27T12:43:37.000Z</time>
      </trkpt>
      <trkpt lat="45.18369" lon="5.87416">
        <ele>699.69</ele>
        <time>2019-05-27T12:43:42.000Z</time>
      </trkpt>
      <trkpt lat="45.18381" lon="5.87391">
        <ele>695.22</ele>
        <time>2019-05-27T12:43:47.000Z</time>
      </trkpt>
      <trkpt lat="45.18376" lon="5.87381">
        <ele>692.15</ele>
        <time>2019-05-27T12:44:16.000Z</time>
      </trkpt>
    </trkseg>
  </trk>
</gpx>